<?xml version="1.0" encoding="UTF-8" standalone="no" ?>
<gpx xmlns="http://www.topografix.com/GPX/1/1" xmlns:xsi="http://www.w3.org/2001/XMLSchema-instance" xsi:schemaLocation="http://www.topografix.com/GPX/1/1 http://www.topografix.com/GPX/1/1/gpx.xsd" version="1.1" creator="VisuGPX - https://www.visugpx.com">
  <metadata>
    <name>rando 39 kms 14 mai</name>
  </metadata>
  <wpt lat="47.01164" lon="5.77537">
    <ele>234</ele>
    <name><![CDATA[Grand tour]]></name>
    <type><![CDATA[Generic]]></type>
  </wpt>
  <trk>
    <name><![CDATA[Grand tour]]></name>
    <extensions>
      <line xmlns="http://www.topografix.com/GPX/gpx_style/0/2">
        <color>0000FF</color>
        <width>4</width>
      </line>
    </extensions>
    <trkseg>
      <trkpt lat="47.01164" lon="5.77537">
        <ele>234</ele>
        <time>2023-05-06T09:59:45Z</time>
      </trkpt>
      <trkpt lat="47.01126" lon="5.76704">
        <ele>232</ele>
        <time>2023-05-06T09:59:57Z</time>
      </trkpt>
      <trkpt lat="47.01123" lon="5.76641">
        <ele>232</ele>
        <time>2023-05-06T10:00:15Z</time>
      </trkpt>
      <trkpt lat="47.01119" lon="5.76592">
        <ele>232</ele>
        <time>2023-05-06T10:00:35Z</time>
      </trkpt>
      <trkpt lat="47.01055" lon="5.76223">
        <ele>231</ele>
        <time>2023-05-06T10:00:42Z</time>
      </trkpt>
      <trkpt lat="47.0098" lon="5.75777">
        <ele>231.7</ele>
        <time>2023-05-06T10:01:01Z</time>
      </trkpt>
      <trkpt lat="47.00978" lon="5.75768">
        <ele>231.4</ele>
        <time>2023-05-06T10:01:15Z</time>
      </trkpt>
      <trkpt lat="47.00975" lon="5.75765">
        <ele>231.4</ele>
        <time>2023-05-06T10:01:28Z</time>
      </trkpt>
      <trkpt lat="47.00973" lon="5.75761">
        <ele>231.4</ele>
        <time>2023-05-06T10:01:39Z</time>
      </trkpt>
      <trkpt lat="47.00811" lon="5.75715">
        <ele>231</ele>
        <time>2023-05-06T10:01:41Z</time>
      </trkpt>
      <trkpt lat="47.00758" lon="5.75695">
        <ele>231</ele>
        <time>2023-05-06T10:02:01Z</time>
      </trkpt>
      <trkpt lat="47.00748" lon="5.75689">
        <ele>231</ele>
        <time>2023-05-06T10:02:17Z</time>
      </trkpt>
      <trkpt lat="47.00729" lon="5.75672">
        <ele>231</ele>
        <time>2023-05-06T10:02:29Z</time>
      </trkpt>
      <trkpt lat="47.00704" lon="5.75639">
        <ele>231.7</ele>
        <time>2023-05-06T10:02:47Z</time>
      </trkpt>
      <trkpt lat="47.00683" lon="5.75616">
        <ele>231.1</ele>
        <time>2023-05-06T10:02:54Z</time>
      </trkpt>
      <trkpt lat="47.0066" lon="5.75598">
        <ele>231</ele>
        <time>2023-05-06T10:02:56Z</time>
      </trkpt>
      <trkpt lat="47.00533" lon="5.75516">
        <ele>231</ele>
        <time>2023-05-06T10:03:08Z</time>
      </trkpt>
      <trkpt lat="47.00504" lon="5.75501">
        <ele>231</ele>
        <time>2023-05-06T10:03:21Z</time>
      </trkpt>
      <trkpt lat="47.00473" lon="5.75493">
        <ele>231</ele>
        <time>2023-05-06T10:03:38Z</time>
      </trkpt>
      <trkpt lat="47.00428" lon="5.75486">
        <ele>231</ele>
        <time>2023-05-06T10:03:57Z</time>
      </trkpt>
      <trkpt lat="47.00417" lon="5.75481">
        <ele>231</ele>
        <time>2023-05-06T10:04:04Z</time>
      </trkpt>
      <trkpt lat="47.00404" lon="5.75497">
        <ele>231</ele>
        <time>2023-05-06T10:04:16Z</time>
      </trkpt>
      <trkpt lat="47.00408" lon="5.75489">
        <ele>231</ele>
        <time>2023-05-06T10:04:28Z</time>
      </trkpt>
      <trkpt lat="47.0031" lon="5.75338">
        <ele>231</ele>
      </trkpt>
      <trkpt lat="47.00181" lon="5.75192">
        <ele>231</ele>
      </trkpt>
      <trkpt lat="47.00171" lon="5.753">
        <ele>231</ele>
        <time>2023-05-06T10:04:43Z</time>
      </trkpt>
      <trkpt lat="47.00159" lon="5.75413">
        <ele>231.3</ele>
        <time>2023-05-06T10:04:52Z</time>
      </trkpt>
      <trkpt lat="47.00164" lon="5.75546">
        <ele>231.7</ele>
        <time>2023-05-06T10:05:11Z</time>
      </trkpt>
      <trkpt lat="47.00172" lon="5.75634">
        <ele>231</ele>
        <time>2023-05-06T10:05:21Z</time>
      </trkpt>
      <trkpt lat="47.00164" lon="5.75688">
        <ele>231.1</ele>
        <time>2023-05-06T10:05:30Z</time>
      </trkpt>
      <trkpt lat="47.00111" lon="5.75759">
        <ele>232.3</ele>
      </trkpt>
      <trkpt lat="47.00121" lon="5.75905">
        <ele>232.6</ele>
        <time>2023-05-06T10:05:34Z</time>
      </trkpt>
      <trkpt lat="47.00115" lon="5.76006">
        <ele>233</ele>
        <time>2023-05-06T10:05:48Z</time>
      </trkpt>
      <trkpt lat="47.00127" lon="5.76068">
        <ele>233.4</ele>
        <time>2023-05-06T10:05:57Z</time>
      </trkpt>
      <trkpt lat="47.00162" lon="5.76147">
        <ele>233.2</ele>
      </trkpt>
      <trkpt lat="47.00187" lon="5.76287">
        <ele>233.3</ele>
      </trkpt>
      <trkpt lat="47.00351" lon="5.76209">
        <ele>232</ele>
        <time>2023-05-06T10:06:16Z</time>
      </trkpt>
      <trkpt lat="47.00357" lon="5.76206">
        <ele>232</ele>
        <time>2023-05-06T10:06:24Z</time>
      </trkpt>
      <trkpt lat="47.00489" lon="5.77147">
        <ele>234</ele>
        <time>2023-05-06T10:06:26Z</time>
      </trkpt>
      <trkpt lat="47.00489" lon="5.77164">
        <ele>234</ele>
        <time>2023-05-06T10:06:31Z</time>
      </trkpt>
      <trkpt lat="47.0049" lon="5.77167">
        <ele>234</ele>
        <time>2023-05-06T10:06:45Z</time>
      </trkpt>
      <trkpt lat="47.00557" lon="5.7721">
        <ele>233.5</ele>
        <time>2023-05-06T10:07:02Z</time>
      </trkpt>
      <trkpt lat="47.0077" lon="5.77362">
        <ele>234</ele>
        <time>2023-05-06T10:07:19Z</time>
      </trkpt>
      <trkpt lat="47.00782" lon="5.7737">
        <ele>233.9</ele>
        <time>2023-05-06T10:07:26Z</time>
      </trkpt>
      <trkpt lat="47.00763" lon="5.77375">
        <ele>234</ele>
        <time>2023-05-06T10:07:32Z</time>
      </trkpt>
      <trkpt lat="47.00717" lon="5.774">
        <ele>234</ele>
        <time>2023-05-06T10:07:47Z</time>
      </trkpt>
      <trkpt lat="47.00651" lon="5.77415">
        <ele>234</ele>
        <time>2023-05-06T10:07:50Z</time>
      </trkpt>
      <trkpt lat="47.00472" lon="5.77444">
        <ele>234</ele>
        <time>2023-05-06T10:07:54Z</time>
      </trkpt>
      <trkpt lat="47.00443" lon="5.77464">
        <ele>234.7</ele>
        <time>2023-05-06T10:07:56Z</time>
      </trkpt>
      <trkpt lat="47.00431" lon="5.77477">
        <ele>235</ele>
        <time>2023-05-06T10:08:15Z</time>
      </trkpt>
      <trkpt lat="47.00413" lon="5.77491">
        <ele>235.1</ele>
        <time>2023-05-06T10:08:28Z</time>
      </trkpt>
      <trkpt lat="47.00388" lon="5.77499">
        <ele>236</ele>
        <time>2023-05-06T10:08:39Z</time>
      </trkpt>
      <trkpt lat="47.003" lon="5.77506">
        <ele>238.2</ele>
        <time>2023-05-06T10:08:58Z</time>
      </trkpt>
      <trkpt lat="47.00269" lon="5.77518">
        <ele>238.6</ele>
        <time>2023-05-06T10:09:11Z</time>
      </trkpt>
      <trkpt lat="47.00253" lon="5.77521">
        <ele>238.8</ele>
        <time>2023-05-06T10:09:30Z</time>
      </trkpt>
      <trkpt lat="47.00252" lon="5.77525">
        <ele>238.9</ele>
        <time>2023-05-06T10:09:47Z</time>
      </trkpt>
      <trkpt lat="47.00252" lon="5.77533">
        <ele>239.2</ele>
        <time>2023-05-06T10:09:50Z</time>
      </trkpt>
      <trkpt lat="47.00353" lon="5.77683">
        <ele>237.5</ele>
        <time>2023-05-06T10:09:58Z</time>
      </trkpt>
      <trkpt lat="47.00562" lon="5.77985">
        <ele>235.4</ele>
        <time>2023-05-06T10:10:13Z</time>
      </trkpt>
      <trkpt lat="47.00658" lon="5.78218">
        <ele>234.3</ele>
        <time>2023-05-06T10:10:17Z</time>
      </trkpt>
      <trkpt lat="47.00726" lon="5.78356">
        <ele>236.6</ele>
        <time>2023-05-06T10:10:27Z</time>
      </trkpt>
      <trkpt lat="47.0083" lon="5.78565">
        <ele>235.3</ele>
        <time>2023-05-06T10:10:29Z</time>
      </trkpt>
      <trkpt lat="47.00831" lon="5.78563">
        <ele>235.3</ele>
        <time>2023-05-06T10:10:39Z</time>
      </trkpt>
      <trkpt lat="47.00797" lon="5.78593">
        <ele>236.3</ele>
        <time>2023-05-06T10:10:45Z</time>
      </trkpt>
      <trkpt lat="47.00796" lon="5.78599">
        <ele>236.6</ele>
        <time>2023-05-06T10:10:57Z</time>
      </trkpt>
      <trkpt lat="47.00788" lon="5.78617">
        <ele>237.1</ele>
        <time>2023-05-06T10:11:02Z</time>
      </trkpt>
      <trkpt lat="47.00783" lon="5.78627">
        <ele>237.1</ele>
        <time>2023-05-06T10:11:13Z</time>
      </trkpt>
      <trkpt lat="47.00649" lon="5.78793">
        <ele>245.4</ele>
        <time>2023-05-06T10:11:33Z</time>
      </trkpt>
      <trkpt lat="47.00619" lon="5.78832">
        <ele>247.7</ele>
        <time>2023-05-06T10:11:41Z</time>
      </trkpt>
      <trkpt lat="47.00573" lon="5.78927">
        <ele>253.1</ele>
        <time>2023-05-06T10:11:50Z</time>
      </trkpt>
      <trkpt lat="47.00518" lon="5.79046">
        <ele>258.6</ele>
        <time>2023-05-06T10:12:07Z</time>
      </trkpt>
      <trkpt lat="47.00503" lon="5.79061">
        <ele>260.9</ele>
        <time>2023-05-06T10:12:13Z</time>
      </trkpt>
      <trkpt lat="47.00492" lon="5.79078">
        <ele>262.3</ele>
        <time>2023-05-06T10:12:19Z</time>
      </trkpt>
      <trkpt lat="47.00486" lon="5.79096">
        <ele>260.7</ele>
        <time>2023-05-06T10:12:24Z</time>
      </trkpt>
      <trkpt lat="47.00483" lon="5.7915">
        <ele>263.2</ele>
        <time>2023-05-06T10:12:29Z</time>
      </trkpt>
      <trkpt lat="47.00475" lon="5.79165">
        <ele>264.8</ele>
        <time>2023-05-06T10:12:31Z</time>
      </trkpt>
      <trkpt lat="47.00449" lon="5.79192">
        <ele>265.2</ele>
        <time>2023-05-06T10:12:36Z</time>
      </trkpt>
      <trkpt lat="47.00364" lon="5.79378">
        <ele>269.3</ele>
        <time>2023-05-06T10:12:42Z</time>
      </trkpt>
      <trkpt lat="47.0024" lon="5.79643">
        <ele>271.5</ele>
        <time>2023-05-06T10:13:02Z</time>
      </trkpt>
      <trkpt lat="47.00184" lon="5.79762">
        <ele>271.4</ele>
        <time>2023-05-06T10:13:19Z</time>
      </trkpt>
      <trkpt lat="47.00181" lon="5.79772">
        <ele>271.1</ele>
        <time>2023-05-06T10:13:28Z</time>
      </trkpt>
      <trkpt lat="47.00183" lon="5.79783">
        <ele>270.9</ele>
        <time>2023-05-06T10:13:38Z</time>
      </trkpt>
      <trkpt lat="47.00187" lon="5.79788">
        <ele>270.7</ele>
        <time>2023-05-06T10:13:40Z</time>
      </trkpt>
      <trkpt lat="47.0019" lon="5.79789">
        <ele>270.7</ele>
        <time>2023-05-06T10:13:44Z</time>
      </trkpt>
      <trkpt lat="47.00212" lon="5.79788">
        <ele>270.2</ele>
        <time>2023-05-06T10:13:52Z</time>
      </trkpt>
      <trkpt lat="47.00236" lon="5.7979">
        <ele>269.9</ele>
        <time>2023-05-06T10:14:10Z</time>
      </trkpt>
      <trkpt lat="47.00283" lon="5.79804">
        <ele>268</ele>
        <time>2023-05-06T10:14:14Z</time>
      </trkpt>
      <trkpt lat="47.00496" lon="5.79872">
        <ele>266</ele>
        <time>2023-05-06T10:14:16Z</time>
      </trkpt>
      <trkpt lat="47.00588" lon="5.79906">
        <ele>265.7</ele>
        <time>2023-05-06T10:14:23Z</time>
      </trkpt>
      <trkpt lat="47.006" lon="5.79911">
        <ele>266.3</ele>
        <time>2023-05-06T10:14:43Z</time>
      </trkpt>
      <trkpt lat="47.00609" lon="5.79914">
        <ele>266.8</ele>
        <time>2023-05-06T10:14:52Z</time>
      </trkpt>
      <trkpt lat="47.00674" lon="5.79927">
        <ele>268.3</ele>
        <time>2023-05-06T10:15:09Z</time>
      </trkpt>
      <trkpt lat="47.00898" lon="5.79957">
        <ele>267.7</ele>
        <time>2023-05-06T10:15:15Z</time>
      </trkpt>
      <trkpt lat="47.00923" lon="5.79963">
        <ele>268</ele>
        <time>2023-05-06T10:15:32Z</time>
      </trkpt>
      <trkpt lat="47.00939" lon="5.7997">
        <ele>268</ele>
        <time>2023-05-06T10:15:47Z</time>
      </trkpt>
      <trkpt lat="47.00939" lon="5.79974">
        <ele>268.1</ele>
        <time>2023-05-06T10:16:01Z</time>
      </trkpt>
      <trkpt lat="47.00939" lon="5.7997">
        <ele>268</ele>
        <time>2023-05-06T10:16:19Z</time>
      </trkpt>
      <trkpt lat="47.01019" lon="5.79973">
        <ele>268.3</ele>
        <time>2023-05-06T10:16:23Z</time>
      </trkpt>
      <trkpt lat="47.01212" lon="5.79976">
        <ele>263.1</ele>
        <time>2023-05-06T10:16:29Z</time>
      </trkpt>
      <trkpt lat="47.01221" lon="5.79974">
        <ele>263.1</ele>
        <time>2023-05-06T10:16:39Z</time>
      </trkpt>
      <trkpt lat="47.01254" lon="5.79959">
        <ele>264.5</ele>
        <time>2023-05-06T10:16:49Z</time>
      </trkpt>
      <trkpt lat="47.01268" lon="5.79955">
        <ele>264.4</ele>
        <time>2023-05-06T10:17:09Z</time>
      </trkpt>
      <trkpt lat="47.01273" lon="5.79957">
        <ele>264.4</ele>
        <time>2023-05-06T10:17:15Z</time>
      </trkpt>
      <trkpt lat="47.01293" lon="5.80013">
        <ele>265.5</ele>
        <time>2023-05-06T10:17:21Z</time>
      </trkpt>
      <trkpt lat="47.01298" lon="5.80058">
        <ele>265.7</ele>
        <time>2023-05-06T10:17:41Z</time>
      </trkpt>
      <trkpt lat="47.01319" lon="5.80055">
        <ele>265.5</ele>
        <time>2023-05-06T10:17:59Z</time>
      </trkpt>
      <trkpt lat="47.01338" lon="5.80049">
        <ele>264.9</ele>
        <time>2023-05-06T10:18:02Z</time>
      </trkpt>
      <trkpt lat="47.01402" lon="5.80007">
        <ele>261.1</ele>
        <time>2023-05-06T10:18:11Z</time>
      </trkpt>
      <trkpt lat="47.0145" lon="5.79989">
        <ele>258.2</ele>
        <time>2023-05-06T10:18:23Z</time>
      </trkpt>
      <trkpt lat="47.01459" lon="5.7999">
        <ele>257.6</ele>
        <time>2023-05-06T10:18:40Z</time>
      </trkpt>
      <trkpt lat="47.01468" lon="5.79999">
        <ele>257.3</ele>
        <time>2023-05-06T10:18:53Z</time>
      </trkpt>
      <trkpt lat="47.01485" lon="5.80022">
        <ele>256.3</ele>
        <time>2023-05-06T10:18:58Z</time>
      </trkpt>
      <trkpt lat="47.01495" lon="5.80035">
        <ele>255.8</ele>
        <time>2023-05-06T10:19:06Z</time>
      </trkpt>
      <trkpt lat="47.01509" lon="5.80051">
        <ele>256.2</ele>
        <time>2023-05-06T10:19:12Z</time>
      </trkpt>
      <trkpt lat="47.01528" lon="5.80062">
        <ele>257.2</ele>
        <time>2023-05-06T10:19:17Z</time>
      </trkpt>
      <trkpt lat="47.01573" lon="5.80075">
        <ele>260.6</ele>
        <time>2023-05-06T10:19:21Z</time>
      </trkpt>
      <trkpt lat="47.01587" lon="5.8008">
        <ele>261.2</ele>
        <time>2023-05-06T10:19:32Z</time>
      </trkpt>
      <trkpt lat="47.01605" lon="5.8009">
        <ele>261.8</ele>
        <time>2023-05-06T10:19:44Z</time>
      </trkpt>
      <trkpt lat="47.01676" lon="5.80145">
        <ele>262.4</ele>
        <time>2023-05-06T10:19:47Z</time>
      </trkpt>
      <trkpt lat="47.01693" lon="5.80163">
        <ele>262.9</ele>
        <time>2023-05-06T10:20:01Z</time>
      </trkpt>
      <trkpt lat="47.01721" lon="5.802">
        <ele>264.2</ele>
        <time>2023-05-06T10:20:04Z</time>
      </trkpt>
      <trkpt lat="47.01731" lon="5.80209">
        <ele>264.5</ele>
        <time>2023-05-06T10:20:21Z</time>
      </trkpt>
      <trkpt lat="47.01757" lon="5.80222">
        <ele>264.7</ele>
        <time>2023-05-06T10:20:26Z</time>
      </trkpt>
      <trkpt lat="47.01842" lon="5.80256">
        <ele>265.3</ele>
        <time>2023-05-06T10:20:29Z</time>
      </trkpt>
      <trkpt lat="47.01883" lon="5.80283">
        <ele>263.5</ele>
        <time>2023-05-06T10:20:36Z</time>
      </trkpt>
      <trkpt lat="47.01959" lon="5.80344">
        <ele>261.1</ele>
        <time>2023-05-06T10:20:49Z</time>
      </trkpt>
      <trkpt lat="47.02018" lon="5.80336">
        <ele>258.5</ele>
        <time>2023-05-06T10:21:02Z</time>
      </trkpt>
      <trkpt lat="47.0207" lon="5.80338">
        <ele>255</ele>
        <time>2023-05-06T10:21:06Z</time>
      </trkpt>
      <trkpt lat="47.02081" lon="5.80336">
        <ele>254.2</ele>
        <time>2023-05-06T10:21:23Z</time>
      </trkpt>
      <trkpt lat="47.02128" lon="5.80301">
        <ele>251.8</ele>
        <time>2023-05-06T10:21:27Z</time>
      </trkpt>
      <trkpt lat="47.0214" lon="5.80298">
        <ele>251.5</ele>
        <time>2023-05-06T10:21:38Z</time>
      </trkpt>
      <trkpt lat="47.02161" lon="5.80297">
        <ele>252.2</ele>
        <time>2023-05-06T10:21:48Z</time>
      </trkpt>
      <trkpt lat="47.02171" lon="5.80293">
        <ele>252.1</ele>
        <time>2023-05-06T10:21:55Z</time>
      </trkpt>
      <trkpt lat="47.02253" lon="5.8039">
        <ele>260.3</ele>
        <time>2023-05-06T10:21:59Z</time>
      </trkpt>
      <trkpt lat="47.02272" lon="5.80406">
        <ele>262.3</ele>
        <time>2023-05-06T10:22:13Z</time>
      </trkpt>
      <trkpt lat="47.0234" lon="5.80456">
        <ele>269.9</ele>
        <time>2023-05-06T10:22:31Z</time>
      </trkpt>
      <trkpt lat="47.02352" lon="5.80468">
        <ele>271.2</ele>
        <time>2023-05-06T10:22:39Z</time>
      </trkpt>
      <trkpt lat="47.02363" lon="5.80485">
        <ele>272.1</ele>
        <time>2023-05-06T10:22:49Z</time>
      </trkpt>
      <trkpt lat="47.02371" lon="5.80494">
        <ele>272.6</ele>
        <time>2023-05-06T10:22:51Z</time>
      </trkpt>
      <trkpt lat="47.02404" lon="5.80528">
        <ele>275.5</ele>
        <time>2023-05-06T10:23:04Z</time>
      </trkpt>
      <trkpt lat="47.02422" lon="5.80557">
        <ele>276.6</ele>
        <time>2023-05-06T10:23:18Z</time>
      </trkpt>
      <trkpt lat="47.0246" lon="5.80576">
        <ele>280</ele>
        <time>2023-05-06T10:23:31Z</time>
      </trkpt>
      <trkpt lat="47.02553" lon="5.80632">
        <ele>286.8</ele>
        <time>2023-05-06T10:23:38Z</time>
      </trkpt>
      <trkpt lat="47.02569" lon="5.80636">
        <ele>288</ele>
        <time>2023-05-06T10:23:50Z</time>
      </trkpt>
      <trkpt lat="47.02596" lon="5.80634">
        <ele>290.6</ele>
        <time>2023-05-06T10:23:52Z</time>
      </trkpt>
      <trkpt lat="47.0264" lon="5.80635">
        <ele>295.1</ele>
        <time>2023-05-06T10:24:01Z</time>
      </trkpt>
      <trkpt lat="47.02656" lon="5.8063">
        <ele>297.4</ele>
        <time>2023-05-06T10:24:15Z</time>
      </trkpt>
      <trkpt lat="47.027" lon="5.80608">
        <ele>303</ele>
        <time>2023-05-06T10:24:33Z</time>
      </trkpt>
      <trkpt lat="47.02715" lon="5.80607">
        <ele>305.6</ele>
        <time>2023-05-06T10:24:46Z</time>
      </trkpt>
      <trkpt lat="47.02743" lon="5.80611">
        <ele>308.5</ele>
        <time>2023-05-06T10:25:06Z</time>
      </trkpt>
      <trkpt lat="47.02796" lon="5.80649">
        <ele>315.1</ele>
        <time>2023-05-06T10:25:09Z</time>
      </trkpt>
      <trkpt lat="47.0283" lon="5.80678">
        <ele>319.6</ele>
        <time>2023-05-06T10:25:21Z</time>
      </trkpt>
      <trkpt lat="47.02851" lon="5.80689">
        <ele>321.9</ele>
        <time>2023-05-06T10:25:27Z</time>
      </trkpt>
      <trkpt lat="47.02867" lon="5.80695">
        <ele>323.4</ele>
        <time>2023-05-06T10:25:42Z</time>
      </trkpt>
      <trkpt lat="47.02973" lon="5.80718">
        <ele>331.7</ele>
        <time>2023-05-06T10:25:52Z</time>
      </trkpt>
      <trkpt lat="47.03021" lon="5.80724">
        <ele>332.8</ele>
        <time>2023-05-06T10:26:06Z</time>
      </trkpt>
      <trkpt lat="47.03046" lon="5.80724">
        <ele>333.8</ele>
        <time>2023-05-06T10:26:16Z</time>
      </trkpt>
      <trkpt lat="47.03103" lon="5.80731">
        <ele>334.9</ele>
        <time>2023-05-06T10:26:32Z</time>
      </trkpt>
      <trkpt lat="47.03118" lon="5.8073">
        <ele>334.6</ele>
        <time>2023-05-06T10:26:45Z</time>
      </trkpt>
      <trkpt lat="47.0317" lon="5.80712">
        <ele>330.4</ele>
        <time>2023-05-06T10:26:48Z</time>
      </trkpt>
      <trkpt lat="47.03191" lon="5.80707">
        <ele>329</ele>
        <time>2023-05-06T10:27:07Z</time>
      </trkpt>
      <trkpt lat="47.03189" lon="5.80713">
        <ele>329.9</ele>
        <time>2023-05-06T10:27:26Z</time>
      </trkpt>
      <trkpt lat="47.03189" lon="5.80721">
        <ele>331</ele>
        <time>2023-05-06T10:27:39Z</time>
      </trkpt>
      <trkpt lat="47.03192" lon="5.8073">
        <ele>331.9</ele>
        <time>2023-05-06T10:27:52Z</time>
      </trkpt>
      <trkpt lat="47.03205" lon="5.80749">
        <ele>333.1</ele>
        <time>2023-05-06T10:27:54Z</time>
      </trkpt>
      <trkpt lat="47.03363" lon="5.80974">
        <ele>342.9</ele>
        <time>2023-05-06T10:27:59Z</time>
      </trkpt>
      <trkpt lat="47.03394" lon="5.81005">
        <ele>341.7</ele>
        <time>2023-05-06T10:28:10Z</time>
      </trkpt>
      <trkpt lat="47.03401" lon="5.81011">
        <ele>341.3</ele>
        <time>2023-05-06T10:28:12Z</time>
      </trkpt>
      <trkpt lat="47.03553" lon="5.81061">
        <ele>333</ele>
        <time>2023-05-06T10:28:17Z</time>
      </trkpt>
      <trkpt lat="47.03559" lon="5.81064">
        <ele>332.4</ele>
        <time>2023-05-06T10:28:20Z</time>
      </trkpt>
      <trkpt lat="47.03561" lon="5.81073">
        <ele>331.9</ele>
        <time>2023-05-06T10:28:25Z</time>
      </trkpt>
      <trkpt lat="47.03568" lon="5.8108">
        <ele>331.1</ele>
        <time>2023-05-06T10:28:29Z</time>
      </trkpt>
      <trkpt lat="47.03577" lon="5.81101">
        <ele>329.2</ele>
        <time>2023-05-06T10:28:44Z</time>
      </trkpt>
      <trkpt lat="47.0359" lon="5.81102">
        <ele>327.7</ele>
        <time>2023-05-06T10:28:51Z</time>
      </trkpt>
      <trkpt lat="47.03617" lon="5.81067">
        <ele>325.8</ele>
        <time>2023-05-06T10:29:03Z</time>
      </trkpt>
      <trkpt lat="47.03623" lon="5.81048">
        <ele>325.1</ele>
        <time>2023-05-06T10:29:19Z</time>
      </trkpt>
      <trkpt lat="47.0362" lon="5.81021">
        <ele>324.7</ele>
        <time>2023-05-06T10:29:33Z</time>
      </trkpt>
      <trkpt lat="47.03635" lon="5.80992">
        <ele>320.7</ele>
        <time>2023-05-06T10:29:53Z</time>
      </trkpt>
      <trkpt lat="47.0366" lon="5.80912">
        <ele>307.5</ele>
        <time>2023-05-06T10:30:11Z</time>
      </trkpt>
      <trkpt lat="47.03675" lon="5.80901">
        <ele>302.9</ele>
        <time>2023-05-06T10:30:22Z</time>
      </trkpt>
      <trkpt lat="47.03674" lon="5.80884">
        <ele>300.6</ele>
        <time>2023-05-06T10:30:25Z</time>
      </trkpt>
      <trkpt lat="47.037" lon="5.80905">
        <ele>297.8</ele>
        <time>2023-05-06T10:30:33Z</time>
      </trkpt>
      <trkpt lat="47.03772" lon="5.80965">
        <ele>289.3</ele>
        <time>2023-05-06T10:30:41Z</time>
      </trkpt>
      <trkpt lat="47.03826" lon="5.80988">
        <ele>279.6</ele>
        <time>2023-05-06T10:30:58Z</time>
      </trkpt>
      <trkpt lat="47.03872" lon="5.81027">
        <ele>268.5</ele>
        <time>2023-05-06T10:31:09Z</time>
      </trkpt>
      <trkpt lat="47.03896" lon="5.81042">
        <ele>265</ele>
        <time>2023-05-06T10:31:17Z</time>
      </trkpt>
      <trkpt lat="47.03898" lon="5.81055">
        <ele>264</ele>
        <time>2023-05-06T10:31:23Z</time>
      </trkpt>
      <trkpt lat="47.03905" lon="5.81086">
        <ele>261.2</ele>
        <time>2023-05-06T10:31:42Z</time>
      </trkpt>
      <trkpt lat="47.03929" lon="5.81148">
        <ele>255.8</ele>
        <time>2023-05-06T10:32:01Z</time>
      </trkpt>
      <trkpt lat="47.03946" lon="5.81214">
        <ele>253.9</ele>
        <time>2023-05-06T10:32:03Z</time>
      </trkpt>
      <trkpt lat="47.03952" lon="5.81252">
        <ele>251.8</ele>
        <time>2023-05-06T10:32:06Z</time>
      </trkpt>
      <trkpt lat="47.03952" lon="5.81252">
        <ele>251.8</ele>
        <time>2023-05-06T10:32:13Z</time>
      </trkpt>
      <trkpt lat="47.03928" lon="5.81256">
        <ele>252.7</ele>
        <time>2023-05-06T10:32:17Z</time>
      </trkpt>
      <trkpt lat="47.03918" lon="5.81263">
        <ele>253</ele>
        <time>2023-05-06T10:32:25Z</time>
      </trkpt>
      <trkpt lat="47.03914" lon="5.81269">
        <ele>252.9</ele>
        <time>2023-05-06T10:32:37Z</time>
      </trkpt>
      <trkpt lat="47.03905" lon="5.81289">
        <ele>251.9</ele>
        <time>2023-05-06T10:32:50Z</time>
      </trkpt>
      <trkpt lat="47.03881" lon="5.81312">
        <ele>251</ele>
        <time>2023-05-06T10:32:57Z</time>
      </trkpt>
      <trkpt lat="47.03869" lon="5.81321">
        <ele>251</ele>
        <time>2023-05-06T10:33:08Z</time>
      </trkpt>
      <trkpt lat="47.03864" lon="5.81322">
        <ele>251</ele>
        <time>2023-05-06T10:33:23Z</time>
      </trkpt>
      <trkpt lat="47.03834" lon="5.81316">
        <ele>252.6</ele>
        <time>2023-05-06T10:33:40Z</time>
      </trkpt>
      <trkpt lat="47.03829" lon="5.81318">
        <ele>252.9</ele>
        <time>2023-05-06T10:33:52Z</time>
      </trkpt>
      <trkpt lat="47.03813" lon="5.81366">
        <ele>254.3</ele>
        <time>2023-05-06T10:33:57Z</time>
      </trkpt>
      <trkpt lat="47.03808" lon="5.81373">
        <ele>254.8</ele>
        <time>2023-05-06T10:34:11Z</time>
      </trkpt>
      <trkpt lat="47.03791" lon="5.81387">
        <ele>255</ele>
        <time>2023-05-06T10:34:20Z</time>
      </trkpt>
      <trkpt lat="47.03765" lon="5.81402">
        <ele>253.8</ele>
        <time>2023-05-06T10:34:22Z</time>
      </trkpt>
      <trkpt lat="47.03736" lon="5.81423">
        <ele>252</ele>
        <time>2023-05-06T10:34:35Z</time>
      </trkpt>
      <trkpt lat="47.03716" lon="5.8143">
        <ele>251.3</ele>
        <time>2023-05-06T10:34:38Z</time>
      </trkpt>
      <trkpt lat="47.03599" lon="5.81415">
        <ele>248</ele>
        <time>2023-05-06T10:34:45Z</time>
      </trkpt>
      <trkpt lat="47.0357" lon="5.81411">
        <ele>246.7</ele>
        <time>2023-05-06T10:34:58Z</time>
      </trkpt>
      <trkpt lat="47.03502" lon="5.81409">
        <ele>243.7</ele>
        <time>2023-05-06T10:35:15Z</time>
      </trkpt>
      <trkpt lat="47.03417" lon="5.81385">
        <ele>242.3</ele>
        <time>2023-05-06T10:35:21Z</time>
      </trkpt>
      <trkpt lat="47.03391" lon="5.8136">
        <ele>246.9</ele>
        <time>2023-05-06T10:35:41Z</time>
      </trkpt>
      <trkpt lat="47.03312" lon="5.81338">
        <ele>247.3</ele>
        <time>2023-05-06T10:35:46Z</time>
      </trkpt>
      <trkpt lat="47.03209" lon="5.81339">
        <ele>249.1</ele>
        <time>2023-05-06T10:36:03Z</time>
      </trkpt>
      <trkpt lat="47.03168" lon="5.81351">
        <ele>247.9</ele>
        <time>2023-05-06T10:36:23Z</time>
      </trkpt>
      <trkpt lat="47.03161" lon="5.8135">
        <ele>248.9</ele>
        <time>2023-05-06T10:36:32Z</time>
      </trkpt>
      <trkpt lat="47.0314" lon="5.81345">
        <ele>251.5</ele>
        <time>2023-05-06T10:36:49Z</time>
      </trkpt>
      <trkpt lat="47.03136" lon="5.81342">
        <ele>252.4</ele>
        <time>2023-05-06T10:36:59Z</time>
      </trkpt>
      <trkpt lat="47.03103" lon="5.81335">
        <ele>252.5</ele>
        <time>2023-05-06T10:37:18Z</time>
      </trkpt>
      <trkpt lat="47.03084" lon="5.81328">
        <ele>254.2</ele>
        <time>2023-05-06T10:37:27Z</time>
      </trkpt>
      <trkpt lat="47.02977" lon="5.81274">
        <ele>257.7</ele>
        <time>2023-05-06T10:37:44Z</time>
      </trkpt>
      <trkpt lat="47.02923" lon="5.81233">
        <ele>261.3</ele>
        <time>2023-05-06T10:37:53Z</time>
      </trkpt>
      <trkpt lat="47.02851" lon="5.81194">
        <ele>265.3</ele>
        <time>2023-05-06T10:38:06Z</time>
      </trkpt>
      <trkpt lat="47.02733" lon="5.81148">
        <ele>261.6</ele>
        <time>2023-05-06T10:38:13Z</time>
      </trkpt>
      <trkpt lat="47.02687" lon="5.81136">
        <ele>260.1</ele>
        <time>2023-05-06T10:38:22Z</time>
      </trkpt>
      <trkpt lat="47.02635" lon="5.81125">
        <ele>258.8</ele>
        <time>2023-05-06T10:38:35Z</time>
      </trkpt>
      <trkpt lat="47.0256" lon="5.81093">
        <ele>257.1</ele>
        <time>2023-05-06T10:38:37Z</time>
      </trkpt>
      <trkpt lat="47.02495" lon="5.81063">
        <ele>255.9</ele>
        <time>2023-05-06T10:38:50Z</time>
      </trkpt>
      <trkpt lat="47.02456" lon="5.81041">
        <ele>256.8</ele>
        <time>2023-05-06T10:38:52Z</time>
      </trkpt>
      <trkpt lat="47.0243" lon="5.81023">
        <ele>258.4</ele>
        <time>2023-05-06T10:39:05Z</time>
      </trkpt>
      <trkpt lat="47.02404" lon="5.80996">
        <ele>261.6</ele>
        <time>2023-05-06T10:39:23Z</time>
      </trkpt>
      <trkpt lat="47.02404" lon="5.80997">
        <ele>261.6</ele>
        <time>2023-05-06T10:39:35Z</time>
      </trkpt>
      <trkpt lat="47.02402" lon="5.80984">
        <ele>262.1</ele>
        <time>2023-05-06T10:39:46Z</time>
      </trkpt>
      <trkpt lat="47.02374" lon="5.80979">
        <ele>263.3</ele>
        <time>2023-05-06T10:39:48Z</time>
      </trkpt>
      <trkpt lat="47.02275" lon="5.8093">
        <ele>266.5</ele>
        <time>2023-05-06T10:39:54Z</time>
      </trkpt>
      <trkpt lat="47.02249" lon="5.8092">
        <ele>266</ele>
        <time>2023-05-06T10:40:08Z</time>
      </trkpt>
      <trkpt lat="47.02188" lon="5.80921">
        <ele>266</ele>
        <time>2023-05-06T10:40:24Z</time>
      </trkpt>
      <trkpt lat="47.02154" lon="5.80926">
        <ele>267</ele>
        <time>2023-05-06T10:40:28Z</time>
      </trkpt>
      <trkpt lat="47.02119" lon="5.80956">
        <ele>272.3</ele>
        <time>2023-05-06T10:40:38Z</time>
      </trkpt>
      <trkpt lat="47.02093" lon="5.80964">
        <ele>274</ele>
        <time>2023-05-06T10:40:47Z</time>
      </trkpt>
      <trkpt lat="47.02021" lon="5.80919">
        <ele>280.9</ele>
        <time>2023-05-06T10:40:57Z</time>
      </trkpt>
      <trkpt lat="47.01978" lon="5.80866">
        <ele>289.3</ele>
        <time>2023-05-06T10:41:13Z</time>
      </trkpt>
      <trkpt lat="47.01872" lon="5.80765">
        <ele>303.7</ele>
        <time>2023-05-06T10:41:21Z</time>
      </trkpt>
      <trkpt lat="47.0182" lon="5.80761">
        <ele>308.6</ele>
        <time>2023-05-06T10:41:41Z</time>
      </trkpt>
      <trkpt lat="47.01706" lon="5.80728">
        <ele>323.9</ele>
        <time>2023-05-06T10:41:52Z</time>
      </trkpt>
      <trkpt lat="47.01657" lon="5.80654">
        <ele>324.4</ele>
        <time>2023-05-06T10:42:05Z</time>
      </trkpt>
      <trkpt lat="47.01544" lon="5.80612">
        <ele>327</ele>
        <time>2023-05-06T10:42:18Z</time>
      </trkpt>
      <trkpt lat="47.01432" lon="5.80583">
        <ele>322.1</ele>
        <time>2023-05-06T10:42:36Z</time>
      </trkpt>
      <trkpt lat="47.01262" lon="5.80605">
        <ele>312.3</ele>
        <time>2023-05-06T10:42:52Z</time>
      </trkpt>
      <trkpt lat="47.01195" lon="5.80601">
        <ele>311.3</ele>
        <time>2023-05-06T10:42:57Z</time>
      </trkpt>
      <trkpt lat="47.01172" lon="5.806">
        <ele>311.5</ele>
        <time>2023-05-06T10:43:09Z</time>
      </trkpt>
      <trkpt lat="47.00928" lon="5.80537">
        <ele>306.9</ele>
        <time>2023-05-06T10:43:21Z</time>
      </trkpt>
      <trkpt lat="47.00907" lon="5.80522">
        <ele>304.7</ele>
        <time>2023-05-06T10:43:28Z</time>
      </trkpt>
      <trkpt lat="47.00893" lon="5.80516">
        <ele>303.1</ele>
        <time>2023-05-06T10:43:40Z</time>
      </trkpt>
      <trkpt lat="47.00875" lon="5.80538">
        <ele>301.5</ele>
        <time>2023-05-06T10:43:52Z</time>
      </trkpt>
      <trkpt lat="47.00873" lon="5.80543">
        <ele>301.3</ele>
        <time>2023-05-06T10:43:57Z</time>
      </trkpt>
      <trkpt lat="47.00882" lon="5.8057">
        <ele>301.6</ele>
        <time>2023-05-06T10:44:15Z</time>
      </trkpt>
      <trkpt lat="47.0088" lon="5.80584">
        <ele>300.7</ele>
        <time>2023-05-06T10:44:21Z</time>
      </trkpt>
      <trkpt lat="47.00887" lon="5.80616">
        <ele>299.4</ele>
        <time>2023-05-06T10:44:27Z</time>
      </trkpt>
      <trkpt lat="47.00876" lon="5.80655">
        <ele>294.4</ele>
        <time>2023-05-06T10:44:45Z</time>
      </trkpt>
      <trkpt lat="47.00799" lon="5.80655">
        <ele>284.7</ele>
        <time>2023-05-06T10:44:47Z</time>
      </trkpt>
      <trkpt lat="47.00774" lon="5.80672">
        <ele>285.7</ele>
        <time>2023-05-06T10:45:05Z</time>
      </trkpt>
      <trkpt lat="47.0066" lon="5.80683">
        <ele>301.7</ele>
        <time>2023-05-06T10:45:19Z</time>
      </trkpt>
      <trkpt lat="47.00623" lon="5.80705">
        <ele>310</ele>
        <time>2023-05-06T10:45:27Z</time>
      </trkpt>
      <trkpt lat="47.00586" lon="5.80722">
        <ele>317.7</ele>
        <time>2023-05-06T10:45:46Z</time>
      </trkpt>
      <trkpt lat="47.00526" lon="5.80752">
        <ele>329.2</ele>
        <time>2023-05-06T10:45:54Z</time>
      </trkpt>
      <trkpt lat="47.00515" lon="5.80757">
        <ele>330.4</ele>
        <time>2023-05-06T10:45:57Z</time>
      </trkpt>
      <trkpt lat="47.0049" lon="5.80758">
        <ele>332.8</ele>
        <time>2023-05-06T10:46:11Z</time>
      </trkpt>
      <trkpt lat="47.00488" lon="5.80775">
        <ele>332.1</ele>
        <time>2023-05-06T10:46:24Z</time>
      </trkpt>
      <trkpt lat="47.00489" lon="5.80789">
        <ele>331</ele>
        <time>2023-05-06T10:46:36Z</time>
      </trkpt>
      <trkpt lat="47.00488" lon="5.80795">
        <ele>330.4</ele>
        <time>2023-05-06T10:46:43Z</time>
      </trkpt>
      <trkpt lat="47.00482" lon="5.80812">
        <ele>328.5</ele>
        <time>2023-05-06T10:47:01Z</time>
      </trkpt>
      <trkpt lat="47.0046" lon="5.80836">
        <ele>326</ele>
        <time>2023-05-06T10:47:13Z</time>
      </trkpt>
      <trkpt lat="47.00452" lon="5.80843">
        <ele>323.8</ele>
        <time>2023-05-06T10:47:27Z</time>
      </trkpt>
      <trkpt lat="47.00427" lon="5.80854">
        <ele>320.2</ele>
        <time>2023-05-06T10:47:42Z</time>
      </trkpt>
      <trkpt lat="47.0041" lon="5.80866">
        <ele>316.6</ele>
        <time>2023-05-06T10:47:46Z</time>
      </trkpt>
      <trkpt lat="47.00406" lon="5.8088">
        <ele>313.3</ele>
        <time>2023-05-06T10:47:59Z</time>
      </trkpt>
      <trkpt lat="47.00409" lon="5.80963">
        <ele>306.8</ele>
        <time>2023-05-06T10:48:15Z</time>
      </trkpt>
      <trkpt lat="47.00413" lon="5.80997">
        <ele>300.8</ele>
        <time>2023-05-06T10:48:35Z</time>
      </trkpt>
      <trkpt lat="47.00412" lon="5.81036">
        <ele>296.1</ele>
        <time>2023-05-06T10:48:40Z</time>
      </trkpt>
      <trkpt lat="47.00402" lon="5.81078">
        <ele>293.9</ele>
        <time>2023-05-06T10:48:58Z</time>
      </trkpt>
      <trkpt lat="47.00397" lon="5.81106">
        <ele>291.9</ele>
        <time>2023-05-06T10:49:13Z</time>
      </trkpt>
      <trkpt lat="47.00397" lon="5.81118">
        <ele>290.3</ele>
        <time>2023-05-06T10:49:24Z</time>
      </trkpt>
      <trkpt lat="47.0039" lon="5.81145">
        <ele>288.6</ele>
        <time>2023-05-06T10:49:29Z</time>
      </trkpt>
      <trkpt lat="47.00381" lon="5.81196">
        <ele>284.7</ele>
        <time>2023-05-06T10:49:43Z</time>
      </trkpt>
      <trkpt lat="47.00377" lon="5.81237">
        <ele>279.3</ele>
        <time>2023-05-06T10:49:51Z</time>
      </trkpt>
      <trkpt lat="47.0037" lon="5.81256">
        <ele>278.1</ele>
        <time>2023-05-06T10:50:09Z</time>
      </trkpt>
      <trkpt lat="47.00361" lon="5.81301">
        <ele>272</ele>
        <time>2023-05-06T10:50:29Z</time>
      </trkpt>
      <trkpt lat="47.00351" lon="5.81317">
        <ele>273</ele>
        <time>2023-05-06T10:50:42Z</time>
      </trkpt>
      <trkpt lat="47.00331" lon="5.81361">
        <ele>272.6</ele>
        <time>2023-05-06T10:50:59Z</time>
      </trkpt>
      <trkpt lat="47.00325" lon="5.81371">
        <ele>273.8</ele>
        <time>2023-05-06T10:51:16Z</time>
      </trkpt>
      <trkpt lat="47.00317" lon="5.81388">
        <ele>273.9</ele>
        <time>2023-05-06T10:51:23Z</time>
      </trkpt>
      <trkpt lat="47.00313" lon="5.81407">
        <ele>272.4</ele>
        <time>2023-05-06T10:51:33Z</time>
      </trkpt>
      <trkpt lat="47.00287" lon="5.81474">
        <ele>274.5</ele>
        <time>2023-05-06T10:51:53Z</time>
      </trkpt>
      <trkpt lat="47.00256" lon="5.81604">
        <ele>271.7</ele>
        <time>2023-05-06T10:52:12Z</time>
      </trkpt>
      <trkpt lat="47.00252" lon="5.81638">
        <ele>270.6</ele>
        <time>2023-05-06T10:52:23Z</time>
      </trkpt>
      <trkpt lat="47.00253" lon="5.8166">
        <ele>268.8</ele>
        <time>2023-05-06T10:52:29Z</time>
      </trkpt>
      <trkpt lat="47.00258" lon="5.8168">
        <ele>266</ele>
        <time>2023-05-06T10:52:44Z</time>
      </trkpt>
      <trkpt lat="47.00252" lon="5.81718">
        <ele>265.4</ele>
        <time>2023-05-06T10:52:48Z</time>
      </trkpt>
      <trkpt lat="47.00252" lon="5.81752">
        <ele>263.3</ele>
        <time>2023-05-06T10:52:56Z</time>
      </trkpt>
      <trkpt lat="47.00255" lon="5.81791">
        <ele>259.6</ele>
        <time>2023-05-06T10:53:02Z</time>
      </trkpt>
      <trkpt lat="47.00252" lon="5.81807">
        <ele>259.5</ele>
        <time>2023-05-06T10:53:11Z</time>
      </trkpt>
      <trkpt lat="47.00238" lon="5.81848">
        <ele>261.1</ele>
        <time>2023-05-06T10:53:28Z</time>
      </trkpt>
      <trkpt lat="47.00222" lon="5.81903">
        <ele>260.6</ele>
        <time>2023-05-06T10:53:37Z</time>
      </trkpt>
      <trkpt lat="47.00198" lon="5.81983">
        <ele>259.8</ele>
        <time>2023-05-06T10:53:45Z</time>
      </trkpt>
      <trkpt lat="47.00188" lon="5.82018">
        <ele>258</ele>
        <time>2023-05-06T10:54:05Z</time>
      </trkpt>
      <trkpt lat="47.00179" lon="5.8206">
        <ele>255.6</ele>
        <time>2023-05-06T10:54:22Z</time>
      </trkpt>
      <trkpt lat="47.00182" lon="5.82097">
        <ele>250.9</ele>
        <time>2023-05-06T10:54:40Z</time>
      </trkpt>
      <trkpt lat="47.00197" lon="5.82092">
        <ele>249.6</ele>
        <time>2023-05-06T10:55:00Z</time>
      </trkpt>
      <trkpt lat="47.00204" lon="5.82123">
        <ele>248.7</ele>
        <time>2023-05-06T10:55:05Z</time>
      </trkpt>
      <trkpt lat="47.00205" lon="5.82158">
        <ele>248.4</ele>
        <time>2023-05-06T10:55:12Z</time>
      </trkpt>
      <trkpt lat="47.00212" lon="5.82201">
        <ele>247.4</ele>
        <time>2023-05-06T10:55:22Z</time>
      </trkpt>
      <trkpt lat="47.00219" lon="5.82235">
        <ele>247.2</ele>
        <time>2023-05-06T10:55:30Z</time>
      </trkpt>
      <trkpt lat="47.00217" lon="5.82261">
        <ele>247.8</ele>
        <time>2023-05-06T10:55:35Z</time>
      </trkpt>
      <trkpt lat="47.00246" lon="5.82287">
        <ele>246.7</ele>
        <time>2023-05-06T10:55:54Z</time>
      </trkpt>
      <trkpt lat="47.00249" lon="5.82297">
        <ele>246.3</ele>
        <time>2023-05-06T10:56:14Z</time>
      </trkpt>
      <trkpt lat="47.00275" lon="5.82305">
        <ele>246</ele>
      </trkpt>
      <trkpt lat="47.00326" lon="5.82347">
        <ele>246</ele>
        <time>2023-05-06T10:56:23Z</time>
      </trkpt>
      <trkpt lat="47.00311" lon="5.82371">
        <ele>246.1</ele>
      </trkpt>
      <trkpt lat="47.00251" lon="5.82388">
        <ele>246</ele>
        <time>2023-05-06T10:56:28Z</time>
      </trkpt>
      <trkpt lat="47.00202" lon="5.82399">
        <ele>246.7</ele>
        <time>2023-05-06T10:56:37Z</time>
      </trkpt>
      <trkpt lat="47.0015" lon="5.82427">
        <ele>248.4</ele>
        <time>2023-05-06T10:56:57Z</time>
      </trkpt>
      <trkpt lat="47.00109" lon="5.8244">
        <ele>251.2</ele>
        <time>2023-05-06T10:57:11Z</time>
      </trkpt>
      <trkpt lat="47.00097" lon="5.82442">
        <ele>251.1</ele>
        <time>2023-05-06T10:57:22Z</time>
      </trkpt>
      <trkpt lat="47.001" lon="5.82453">
        <ele>250.8</ele>
        <time>2023-05-06T10:57:28Z</time>
      </trkpt>
      <trkpt lat="47.00093" lon="5.82477">
        <ele>250.5</ele>
        <time>2023-05-06T10:57:38Z</time>
      </trkpt>
      <trkpt lat="47.00088" lon="5.82495">
        <ele>250</ele>
        <time>2023-05-06T10:57:52Z</time>
      </trkpt>
      <trkpt lat="47.00087" lon="5.82513">
        <ele>249.8</ele>
        <time>2023-05-06T10:57:56Z</time>
      </trkpt>
      <trkpt lat="47.00063" lon="5.82623">
        <ele>245.6</ele>
        <time>2023-05-06T10:58:10Z</time>
      </trkpt>
      <trkpt lat="47.00064" lon="5.82623">
        <ele>245.6</ele>
        <time>2023-05-06T10:58:25Z</time>
      </trkpt>
      <trkpt lat="47.00063" lon="5.82623">
        <ele>245.6</ele>
        <time>2023-05-06T10:58:37Z</time>
      </trkpt>
      <trkpt lat="47.00061" lon="5.82625">
        <ele>245.5</ele>
        <time>2023-05-06T10:58:43Z</time>
      </trkpt>
      <trkpt lat="47.00037" lon="5.8262">
        <ele>245.2</ele>
        <time>2023-05-06T10:58:51Z</time>
      </trkpt>
      <trkpt lat="46.9998" lon="5.82601">
        <ele>245.8</ele>
        <time>2023-05-06T10:58:55Z</time>
      </trkpt>
      <trkpt lat="46.99923" lon="5.82566">
        <ele>246</ele>
        <time>2023-05-06T10:59:00Z</time>
      </trkpt>
      <trkpt lat="46.99906" lon="5.82558">
        <ele>246</ele>
        <time>2023-05-06T10:59:17Z</time>
      </trkpt>
      <trkpt lat="46.99868" lon="5.82555">
        <ele>246.8</ele>
        <time>2023-05-06T10:59:34Z</time>
      </trkpt>
      <trkpt lat="46.99775" lon="5.82556">
        <ele>246</ele>
        <time>2023-05-06T10:59:47Z</time>
      </trkpt>
      <trkpt lat="46.99751" lon="5.8255">
        <ele>246.2</ele>
        <time>2023-05-06T10:59:55Z</time>
      </trkpt>
      <trkpt lat="46.99738" lon="5.82552">
        <ele>246.5</ele>
        <time>2023-05-06T11:00:11Z</time>
      </trkpt>
      <trkpt lat="46.99729" lon="5.82553">
        <ele>246.7</ele>
        <time>2023-05-06T11:00:20Z</time>
      </trkpt>
      <trkpt lat="46.99691" lon="5.82573">
        <ele>246.1</ele>
        <time>2023-05-06T11:00:39Z</time>
      </trkpt>
      <trkpt lat="46.99559" lon="5.82682">
        <ele>246.9</ele>
        <time>2023-05-06T11:00:54Z</time>
      </trkpt>
      <trkpt lat="46.99519" lon="5.8271">
        <ele>247</ele>
        <time>2023-05-06T11:01:06Z</time>
      </trkpt>
      <trkpt lat="46.9949" lon="5.82708">
        <ele>248.9</ele>
        <time>2023-05-06T11:01:10Z</time>
      </trkpt>
      <trkpt lat="46.9944" lon="5.82738">
        <ele>252.1</ele>
        <time>2023-05-06T11:01:17Z</time>
      </trkpt>
      <trkpt lat="46.99428" lon="5.82744">
        <ele>250.8</ele>
        <time>2023-05-06T11:01:27Z</time>
      </trkpt>
      <trkpt lat="46.99421" lon="5.82741">
        <ele>250.1</ele>
        <time>2023-05-06T11:01:31Z</time>
      </trkpt>
      <trkpt lat="46.99416" lon="5.82728">
        <ele>250.6</ele>
        <time>2023-05-06T11:01:43Z</time>
      </trkpt>
      <trkpt lat="46.99385" lon="5.82698">
        <ele>249.7</ele>
        <time>2023-05-06T11:01:45Z</time>
      </trkpt>
      <trkpt lat="46.99379" lon="5.82701">
        <ele>249.5</ele>
        <time>2023-05-06T11:02:05Z</time>
      </trkpt>
      <trkpt lat="46.99367" lon="5.82705">
        <ele>249.1</ele>
        <time>2023-05-06T11:02:14Z</time>
      </trkpt>
      <trkpt lat="46.9932" lon="5.82712">
        <ele>249.2</ele>
        <time>2023-05-06T11:02:30Z</time>
      </trkpt>
      <trkpt lat="46.99287" lon="5.8272">
        <ele>249</ele>
        <time>2023-05-06T11:02:49Z</time>
      </trkpt>
      <trkpt lat="46.99279" lon="5.82724">
        <ele>248.9</ele>
        <time>2023-05-06T11:02:56Z</time>
      </trkpt>
      <trkpt lat="46.99264" lon="5.82739">
        <ele>249.2</ele>
        <time>2023-05-06T11:03:06Z</time>
      </trkpt>
      <trkpt lat="46.99233" lon="5.82787">
        <ele>249.9</ele>
        <time>2023-05-06T11:03:15Z</time>
      </trkpt>
      <trkpt lat="46.99222" lon="5.82801">
        <ele>250.2</ele>
        <time>2023-05-06T11:03:34Z</time>
      </trkpt>
      <trkpt lat="46.99205" lon="5.82815">
        <ele>250.9</ele>
        <time>2023-05-06T11:03:53Z</time>
      </trkpt>
      <trkpt lat="46.99177" lon="5.82835">
        <ele>251.7</ele>
        <time>2023-05-06T11:04:08Z</time>
      </trkpt>
      <trkpt lat="46.99163" lon="5.82848">
        <ele>252.7</ele>
        <time>2023-05-06T11:04:12Z</time>
      </trkpt>
      <trkpt lat="46.99146" lon="5.82867">
        <ele>253.7</ele>
        <time>2023-05-06T11:04:23Z</time>
      </trkpt>
      <trkpt lat="46.99129" lon="5.82892">
        <ele>254.8</ele>
        <time>2023-05-06T11:04:43Z</time>
      </trkpt>
      <trkpt lat="46.99117" lon="5.82913">
        <ele>255.8</ele>
        <time>2023-05-06T11:04:55Z</time>
      </trkpt>
      <trkpt lat="46.99113" lon="5.82906">
        <ele>255.9</ele>
        <time>2023-05-06T11:05:12Z</time>
      </trkpt>
      <trkpt lat="46.99108" lon="5.82913">
        <ele>256.1</ele>
        <time>2023-05-06T11:05:23Z</time>
      </trkpt>
      <trkpt lat="46.99096" lon="5.82943">
        <ele>256.6</ele>
        <time>2023-05-06T11:05:35Z</time>
      </trkpt>
      <trkpt lat="46.99042" lon="5.83036">
        <ele>260.6</ele>
        <time>2023-05-06T11:05:45Z</time>
      </trkpt>
      <trkpt lat="46.9903" lon="5.83066">
        <ele>261.9</ele>
        <time>2023-05-06T11:06:03Z</time>
      </trkpt>
      <trkpt lat="46.99008" lon="5.83139">
        <ele>265.7</ele>
        <time>2023-05-06T11:06:10Z</time>
      </trkpt>
      <trkpt lat="46.98998" lon="5.83178">
        <ele>269.3</ele>
        <time>2023-05-06T11:06:20Z</time>
      </trkpt>
      <trkpt lat="46.98996" lon="5.83207">
        <ele>272.6</ele>
        <time>2023-05-06T11:06:32Z</time>
      </trkpt>
      <trkpt lat="46.98993" lon="5.83216">
        <ele>273.7</ele>
        <time>2023-05-06T11:06:46Z</time>
      </trkpt>
      <trkpt lat="46.9898" lon="5.83231">
        <ele>276.6</ele>
        <time>2023-05-06T11:06:52Z</time>
      </trkpt>
      <trkpt lat="46.9895" lon="5.83243">
        <ele>280.3</ele>
        <time>2023-05-06T11:06:58Z</time>
      </trkpt>
      <trkpt lat="46.98935" lon="5.83243">
        <ele>281.5</ele>
        <time>2023-05-06T11:07:11Z</time>
      </trkpt>
      <trkpt lat="46.989" lon="5.83239">
        <ele>283.3</ele>
        <time>2023-05-06T11:07:23Z</time>
      </trkpt>
      <trkpt lat="46.98835" lon="5.83243">
        <ele>287.7</ele>
        <time>2023-05-06T11:07:35Z</time>
      </trkpt>
      <trkpt lat="46.988" lon="5.8326">
        <ele>292.5</ele>
        <time>2023-05-06T11:07:55Z</time>
      </trkpt>
      <trkpt lat="46.98775" lon="5.83289">
        <ele>297.7</ele>
        <time>2023-05-06T11:08:12Z</time>
      </trkpt>
      <trkpt lat="46.9875" lon="5.83329">
        <ele>304.1</ele>
        <time>2023-05-06T11:08:22Z</time>
      </trkpt>
      <trkpt lat="46.9872" lon="5.83358">
        <ele>309.4</ele>
        <time>2023-05-06T11:08:34Z</time>
      </trkpt>
      <trkpt lat="46.98712" lon="5.83366">
        <ele>310.6</ele>
        <time>2023-05-06T11:08:44Z</time>
      </trkpt>
      <trkpt lat="46.98665" lon="5.8339">
        <ele>313.2</ele>
        <time>2023-05-06T11:08:52Z</time>
      </trkpt>
      <trkpt lat="46.98608" lon="5.83412">
        <ele>316.8</ele>
        <time>2023-05-06T11:08:59Z</time>
      </trkpt>
      <trkpt lat="46.98574" lon="5.83434">
        <ele>320.8</ele>
        <time>2023-05-06T11:09:19Z</time>
      </trkpt>
      <trkpt lat="46.98528" lon="5.83473">
        <ele>328.1</ele>
        <time>2023-05-06T11:09:35Z</time>
      </trkpt>
      <trkpt lat="46.98488" lon="5.83494">
        <ele>332</ele>
        <time>2023-05-06T11:09:45Z</time>
      </trkpt>
      <trkpt lat="46.98454" lon="5.83507">
        <ele>334.3</ele>
        <time>2023-05-06T11:09:50Z</time>
      </trkpt>
      <trkpt lat="46.98418" lon="5.83517">
        <ele>336.5</ele>
        <time>2023-05-06T11:10:07Z</time>
      </trkpt>
      <trkpt lat="46.98347" lon="5.83551">
        <ele>345.1</ele>
        <time>2023-05-06T11:10:09Z</time>
      </trkpt>
      <trkpt lat="46.9827" lon="5.83541">
        <ele>352.3</ele>
        <time>2023-05-06T11:10:13Z</time>
      </trkpt>
      <trkpt lat="46.98227" lon="5.83523">
        <ele>356.1</ele>
        <time>2023-05-06T11:10:15Z</time>
      </trkpt>
      <trkpt lat="46.9814" lon="5.83463">
        <ele>362.4</ele>
        <time>2023-05-06T11:10:29Z</time>
      </trkpt>
      <trkpt lat="46.98083" lon="5.83432">
        <ele>370.4</ele>
        <time>2023-05-06T11:10:48Z</time>
      </trkpt>
      <trkpt lat="46.98017" lon="5.83391">
        <ele>381.7</ele>
        <time>2023-05-06T11:11:05Z</time>
      </trkpt>
      <trkpt lat="46.97981" lon="5.83369">
        <ele>386.7</ele>
        <time>2023-05-06T11:11:22Z</time>
      </trkpt>
      <trkpt lat="46.97898" lon="5.83327">
        <ele>401</ele>
        <time>2023-05-06T11:11:42Z</time>
      </trkpt>
      <trkpt lat="46.97823" lon="5.83291">
        <ele>413.1</ele>
        <time>2023-05-06T11:11:45Z</time>
      </trkpt>
      <trkpt lat="46.97772" lon="5.83277">
        <ele>423.3</ele>
        <time>2023-05-06T11:11:48Z</time>
      </trkpt>
      <trkpt lat="46.97762" lon="5.83278">
        <ele>426.1</ele>
        <time>2023-05-06T11:11:56Z</time>
      </trkpt>
      <trkpt lat="46.97754" lon="5.83282">
        <ele>429.3</ele>
        <time>2023-05-06T11:12:04Z</time>
      </trkpt>
      <trkpt lat="46.97674" lon="5.83158">
        <ele>416.6</ele>
        <time>2023-05-06T11:12:17Z</time>
      </trkpt>
      <trkpt lat="46.97643" lon="5.83121">
        <ele>412.6</ele>
        <time>2023-05-06T11:12:33Z</time>
      </trkpt>
      <trkpt lat="46.97519" lon="5.83007">
        <ele>394.1</ele>
        <time>2023-05-06T11:12:42Z</time>
      </trkpt>
      <trkpt lat="46.97495" lon="5.82986">
        <ele>388.8</ele>
        <time>2023-05-06T11:12:45Z</time>
      </trkpt>
      <trkpt lat="46.97438" lon="5.82928">
        <ele>373.1</ele>
        <time>2023-05-06T11:12:47Z</time>
      </trkpt>
      <trkpt lat="46.97427" lon="5.82844">
        <ele>358.6</ele>
        <time>2023-05-06T11:12:49Z</time>
      </trkpt>
      <trkpt lat="46.97403" lon="5.82798">
        <ele>359.7</ele>
        <time>2023-05-06T11:12:52Z</time>
      </trkpt>
      <trkpt lat="46.97379" lon="5.82747">
        <ele>358.8</ele>
        <time>2023-05-06T11:13:02Z</time>
      </trkpt>
      <trkpt lat="46.97345" lon="5.82665">
        <ele>356.8</ele>
        <time>2023-05-06T11:13:19Z</time>
      </trkpt>
      <trkpt lat="46.97287" lon="5.8256">
        <ele>354.9</ele>
        <time>2023-05-06T11:13:25Z</time>
      </trkpt>
      <trkpt lat="46.97255" lon="5.82491">
        <ele>353.5</ele>
        <time>2023-05-06T11:13:37Z</time>
      </trkpt>
      <trkpt lat="46.97247" lon="5.82462">
        <ele>352.5</ele>
        <time>2023-05-06T11:13:44Z</time>
      </trkpt>
      <trkpt lat="46.9724" lon="5.82436">
        <ele>351.1</ele>
        <time>2023-05-06T11:14:01Z</time>
      </trkpt>
      <trkpt lat="46.97228" lon="5.82347">
        <ele>341.2</ele>
        <time>2023-05-06T11:14:12Z</time>
      </trkpt>
      <trkpt lat="46.97221" lon="5.82312">
        <ele>337.1</ele>
        <time>2023-05-06T11:14:14Z</time>
      </trkpt>
      <trkpt lat="46.97212" lon="5.82277">
        <ele>334.8</ele>
        <time>2023-05-06T11:14:20Z</time>
      </trkpt>
      <trkpt lat="46.97203" lon="5.82255">
        <ele>331.9</ele>
        <time>2023-05-06T11:14:32Z</time>
      </trkpt>
      <trkpt lat="46.97182" lon="5.82221">
        <ele>327.9</ele>
        <time>2023-05-06T11:14:35Z</time>
      </trkpt>
      <trkpt lat="46.97169" lon="5.82192">
        <ele>324.1</ele>
        <time>2023-05-06T11:14:54Z</time>
      </trkpt>
      <trkpt lat="46.97157" lon="5.82149">
        <ele>319.5</ele>
        <time>2023-05-06T11:15:03Z</time>
      </trkpt>
      <trkpt lat="46.97145" lon="5.82119">
        <ele>317.6</ele>
        <time>2023-05-06T11:15:21Z</time>
      </trkpt>
      <trkpt lat="46.97132" lon="5.82066">
        <ele>312.5</ele>
        <time>2023-05-06T11:15:26Z</time>
      </trkpt>
      <trkpt lat="46.97106" lon="5.81998">
        <ele>306.5</ele>
        <time>2023-05-06T11:15:30Z</time>
      </trkpt>
      <trkpt lat="46.9709" lon="5.81968">
        <ele>302.9</ele>
        <time>2023-05-06T11:15:48Z</time>
      </trkpt>
      <trkpt lat="46.97084" lon="5.81965">
        <ele>303.1</ele>
        <time>2023-05-06T11:16:01Z</time>
      </trkpt>
      <trkpt lat="46.97078" lon="5.81964">
        <ele>302.6</ele>
        <time>2023-05-06T11:16:16Z</time>
      </trkpt>
      <trkpt lat="46.97058" lon="5.81972">
        <ele>301.2</ele>
        <time>2023-05-06T11:16:23Z</time>
      </trkpt>
      <trkpt lat="46.97052" lon="5.81971">
        <ele>300.6</ele>
        <time>2023-05-06T11:16:39Z</time>
      </trkpt>
      <trkpt lat="46.97053" lon="5.81966">
        <ele>300.3</ele>
        <time>2023-05-06T11:16:53Z</time>
      </trkpt>
      <trkpt lat="46.97056" lon="5.81936">
        <ele>298.1</ele>
        <time>2023-05-06T11:17:09Z</time>
      </trkpt>
      <trkpt lat="46.97048" lon="5.81919">
        <ele>296.2</ele>
        <time>2023-05-06T11:17:26Z</time>
      </trkpt>
      <trkpt lat="46.97043" lon="5.81898">
        <ele>295</ele>
        <time>2023-05-06T11:17:41Z</time>
      </trkpt>
      <trkpt lat="46.97028" lon="5.81795">
        <ele>290.6</ele>
        <time>2023-05-06T11:17:54Z</time>
      </trkpt>
      <trkpt lat="46.97027" lon="5.81797">
        <ele>290.7</ele>
        <time>2023-05-06T11:18:12Z</time>
      </trkpt>
      <trkpt lat="46.97056" lon="5.81777">
        <ele>289</ele>
        <time>2023-05-06T11:18:18Z</time>
      </trkpt>
      <trkpt lat="46.97078" lon="5.81758">
        <ele>288.2</ele>
        <time>2023-05-06T11:18:37Z</time>
      </trkpt>
      <trkpt lat="46.97229" lon="5.81578">
        <ele>287.2</ele>
        <time>2023-05-06T11:18:56Z</time>
      </trkpt>
      <trkpt lat="46.97288" lon="5.81504">
        <ele>286.2</ele>
        <time>2023-05-06T11:19:13Z</time>
      </trkpt>
      <trkpt lat="46.97287" lon="5.81501">
        <ele>286.3</ele>
        <time>2023-05-06T11:19:20Z</time>
      </trkpt>
      <trkpt lat="46.97276" lon="5.81472">
        <ele>287.3</ele>
        <time>2023-05-06T11:19:39Z</time>
      </trkpt>
      <trkpt lat="46.97268" lon="5.81445">
        <ele>287.7</ele>
        <time>2023-05-06T11:19:56Z</time>
      </trkpt>
      <trkpt lat="46.97268" lon="5.81423">
        <ele>287.7</ele>
        <time>2023-05-06T11:20:07Z</time>
      </trkpt>
      <trkpt lat="46.97264" lon="5.81365">
        <ele>288.5</ele>
        <time>2023-05-06T11:20:21Z</time>
      </trkpt>
      <trkpt lat="46.97265" lon="5.81347">
        <ele>288.9</ele>
        <time>2023-05-06T11:20:31Z</time>
      </trkpt>
      <trkpt lat="46.97273" lon="5.81313">
        <ele>290</ele>
        <time>2023-05-06T11:20:41Z</time>
      </trkpt>
      <trkpt lat="46.97273" lon="5.81306">
        <ele>290.5</ele>
        <time>2023-05-06T11:20:48Z</time>
      </trkpt>
      <trkpt lat="46.9727" lon="5.81281">
        <ele>290.1</ele>
        <time>2023-05-06T11:20:51Z</time>
      </trkpt>
      <trkpt lat="46.97269" lon="5.8128">
        <ele>290.1</ele>
        <time>2023-05-06T11:20:54Z</time>
      </trkpt>
      <trkpt lat="46.97266" lon="5.81276">
        <ele>290</ele>
        <time>2023-05-06T11:21:01Z</time>
      </trkpt>
      <trkpt lat="46.97262" lon="5.81276">
        <ele>290</ele>
        <time>2023-05-06T11:21:12Z</time>
      </trkpt>
      <trkpt lat="46.97229" lon="5.8129">
        <ele>292</ele>
        <time>2023-05-06T11:21:14Z</time>
      </trkpt>
      <trkpt lat="46.97206" lon="5.81292">
        <ele>293.7</ele>
        <time>2023-05-06T11:21:21Z</time>
      </trkpt>
      <trkpt lat="46.97195" lon="5.81292">
        <ele>294.5</ele>
        <time>2023-05-06T11:21:34Z</time>
      </trkpt>
      <trkpt lat="46.9719" lon="5.8129">
        <ele>294.7</ele>
        <time>2023-05-06T11:21:49Z</time>
      </trkpt>
      <trkpt lat="46.97187" lon="5.81285">
        <ele>295</ele>
        <time>2023-05-06T11:22:05Z</time>
      </trkpt>
      <trkpt lat="46.97185" lon="5.81278">
        <ele>295.3</ele>
        <time>2023-05-06T11:22:24Z</time>
      </trkpt>
      <trkpt lat="46.97185" lon="5.81269">
        <ele>295.4</ele>
        <time>2023-05-06T11:22:42Z</time>
      </trkpt>
      <trkpt lat="46.97189" lon="5.8122">
        <ele>295.8</ele>
        <time>2023-05-06T11:22:53Z</time>
      </trkpt>
      <trkpt lat="46.9719" lon="5.812">
        <ele>295.3</ele>
        <time>2023-05-06T11:23:10Z</time>
      </trkpt>
      <trkpt lat="46.97189" lon="5.81188">
        <ele>295.4</ele>
        <time>2023-05-06T11:23:18Z</time>
      </trkpt>
      <trkpt lat="46.97177" lon="5.81145">
        <ele>297.5</ele>
        <time>2023-05-06T11:23:38Z</time>
      </trkpt>
      <trkpt lat="46.97155" lon="5.8109">
        <ele>303.6</ele>
        <time>2023-05-06T11:23:43Z</time>
      </trkpt>
      <trkpt lat="46.97156" lon="5.81083">
        <ele>304.6</ele>
        <time>2023-05-06T11:23:52Z</time>
      </trkpt>
      <trkpt lat="46.97143" lon="5.81002">
        <ele>313.9</ele>
        <time>2023-05-06T11:24:09Z</time>
      </trkpt>
      <trkpt lat="46.97132" lon="5.80925">
        <ele>320.2</ele>
        <time>2023-05-06T11:24:16Z</time>
      </trkpt>
      <trkpt lat="46.9714" lon="5.80902">
        <ele>323.2</ele>
        <time>2023-05-06T11:24:36Z</time>
      </trkpt>
      <trkpt lat="46.97146" lon="5.8084">
        <ele>329.7</ele>
        <time>2023-05-06T11:24:44Z</time>
      </trkpt>
      <trkpt lat="46.97159" lon="5.80816">
        <ele>331.9</ele>
        <time>2023-05-06T11:24:51Z</time>
      </trkpt>
      <trkpt lat="46.97179" lon="5.80799">
        <ele>333.9</ele>
        <time>2023-05-06T11:24:58Z</time>
      </trkpt>
      <trkpt lat="46.97182" lon="5.80748">
        <ele>338.1</ele>
        <time>2023-05-06T11:25:03Z</time>
      </trkpt>
      <trkpt lat="46.97171" lon="5.80696">
        <ele>338.2</ele>
        <time>2023-05-06T11:25:19Z</time>
      </trkpt>
      <trkpt lat="46.97165" lon="5.80647">
        <ele>337.9</ele>
        <time>2023-05-06T11:25:30Z</time>
      </trkpt>
      <trkpt lat="46.97152" lon="5.80606">
        <ele>338.7</ele>
        <time>2023-05-06T11:25:47Z</time>
      </trkpt>
      <trkpt lat="46.97154" lon="5.80553">
        <ele>339.7</ele>
        <time>2023-05-06T11:25:52Z</time>
      </trkpt>
      <trkpt lat="46.97182" lon="5.80451">
        <ele>327.2</ele>
        <time>2023-05-06T11:26:11Z</time>
      </trkpt>
      <trkpt lat="46.97196" lon="5.80418">
        <ele>323.1</ele>
        <time>2023-05-06T11:26:31Z</time>
      </trkpt>
      <trkpt lat="46.972" lon="5.80408">
        <ele>322.6</ele>
        <time>2023-05-06T11:26:48Z</time>
      </trkpt>
      <trkpt lat="46.97212" lon="5.80357">
        <ele>320.8</ele>
        <time>2023-05-06T11:26:59Z</time>
      </trkpt>
      <trkpt lat="46.97218" lon="5.80288">
        <ele>318.6</ele>
        <time>2023-05-06T11:27:16Z</time>
      </trkpt>
      <trkpt lat="46.97101" lon="5.80214">
        <ele>313.7</ele>
        <time>2023-05-06T11:27:29Z</time>
      </trkpt>
      <trkpt lat="46.97044" lon="5.80178">
        <ele>313.3</ele>
        <time>2023-05-06T11:27:48Z</time>
      </trkpt>
      <trkpt lat="46.96933" lon="5.80103">
        <ele>308.5</ele>
        <time>2023-05-06T11:27:50Z</time>
      </trkpt>
      <trkpt lat="46.96809" lon="5.80027">
        <ele>301.7</ele>
        <time>2023-05-06T11:27:55Z</time>
      </trkpt>
      <trkpt lat="46.96776" lon="5.80003">
        <ele>298.1</ele>
        <time>2023-05-06T11:28:04Z</time>
      </trkpt>
      <trkpt lat="46.96765" lon="5.79995">
        <ele>298.1</ele>
        <time>2023-05-06T11:28:18Z</time>
      </trkpt>
      <trkpt lat="46.96755" lon="5.79979">
        <ele>295.6</ele>
        <time>2023-05-06T11:28:21Z</time>
      </trkpt>
      <trkpt lat="46.96753" lon="5.79965">
        <ele>293.6</ele>
        <time>2023-05-06T11:28:37Z</time>
      </trkpt>
      <trkpt lat="46.96752" lon="5.79955">
        <ele>292.8</ele>
        <time>2023-05-06T11:28:51Z</time>
      </trkpt>
      <trkpt lat="46.96769" lon="5.79919">
        <ele>288.9</ele>
        <time>2023-05-06T11:29:08Z</time>
      </trkpt>
      <trkpt lat="46.96832" lon="5.79923">
        <ele>286.6</ele>
        <time>2023-05-06T11:29:10Z</time>
      </trkpt>
      <trkpt lat="46.96884" lon="5.7993">
        <ele>287</ele>
        <time>2023-05-06T11:29:26Z</time>
      </trkpt>
      <trkpt lat="46.96936" lon="5.79919">
        <ele>287.3</ele>
        <time>2023-05-06T11:29:46Z</time>
      </trkpt>
      <trkpt lat="46.97037" lon="5.80038">
        <ele>300.8</ele>
        <time>2023-05-06T11:29:52Z</time>
      </trkpt>
      <trkpt lat="46.97058" lon="5.80109">
        <ele>307.6</ele>
        <time>2023-05-06T11:30:12Z</time>
      </trkpt>
      <trkpt lat="46.97123" lon="5.80159">
        <ele>307.8</ele>
        <time>2023-05-06T11:30:24Z</time>
      </trkpt>
      <trkpt lat="46.97168" lon="5.8015">
        <ele>309.2</ele>
        <time>2023-05-06T11:30:43Z</time>
      </trkpt>
      <trkpt lat="46.97241" lon="5.80091">
        <ele>304.6</ele>
        <time>2023-05-06T11:30:50Z</time>
      </trkpt>
      <trkpt lat="46.97292" lon="5.80088">
        <ele>305.7</ele>
        <time>2023-05-06T11:31:05Z</time>
      </trkpt>
      <trkpt lat="46.97329" lon="5.80002">
        <ele>299.7</ele>
        <time>2023-05-06T11:31:21Z</time>
      </trkpt>
      <trkpt lat="46.974" lon="5.7993">
        <ele>296.2</ele>
        <time>2023-05-06T11:31:38Z</time>
      </trkpt>
      <trkpt lat="46.97463" lon="5.79805">
        <ele>283.6</ele>
        <time>2023-05-06T11:31:50Z</time>
      </trkpt>
      <trkpt lat="46.97509" lon="5.79777">
        <ele>279.9</ele>
        <time>2023-05-06T11:31:53Z</time>
      </trkpt>
      <trkpt lat="46.97542" lon="5.79754">
        <ele>277.8</ele>
        <time>2023-05-06T11:31:58Z</time>
      </trkpt>
      <trkpt lat="46.97604" lon="5.79618">
        <ele>266.6</ele>
        <time>2023-05-06T11:32:13Z</time>
      </trkpt>
      <trkpt lat="46.97678" lon="5.79658">
        <ele>272.1</ele>
        <time>2023-05-06T11:32:33Z</time>
      </trkpt>
      <trkpt lat="46.97713" lon="5.797">
        <ele>274.9</ele>
        <time>2023-05-06T11:32:39Z</time>
      </trkpt>
      <trkpt lat="46.97768" lon="5.7968">
        <ele>277.8</ele>
        <time>2023-05-06T11:32:51Z</time>
      </trkpt>
      <trkpt lat="46.97807" lon="5.79617">
        <ele>276.6</ele>
        <time>2023-05-06T11:33:11Z</time>
      </trkpt>
      <trkpt lat="46.97828" lon="5.79628">
        <ele>282.2</ele>
        <time>2023-05-06T11:33:13Z</time>
      </trkpt>
      <trkpt lat="46.97868" lon="5.79625">
        <ele>281.8</ele>
        <time>2023-05-06T11:33:30Z</time>
      </trkpt>
      <trkpt lat="46.97909" lon="5.79584">
        <ele>281.5</ele>
        <time>2023-05-06T11:33:42Z</time>
      </trkpt>
      <trkpt lat="46.97925" lon="5.79572">
        <ele>281.7</ele>
        <time>2023-05-06T11:34:01Z</time>
      </trkpt>
      <trkpt lat="46.9794" lon="5.79565">
        <ele>281.1</ele>
        <time>2023-05-06T11:34:07Z</time>
      </trkpt>
      <trkpt lat="46.97973" lon="5.79556">
        <ele>281.1</ele>
        <time>2023-05-06T11:34:24Z</time>
      </trkpt>
      <trkpt lat="46.98032" lon="5.79546">
        <ele>284.7</ele>
        <time>2023-05-06T11:34:29Z</time>
      </trkpt>
      <trkpt lat="46.98057" lon="5.79538">
        <ele>286.5</ele>
        <time>2023-05-06T11:34:44Z</time>
      </trkpt>
      <trkpt lat="46.9808" lon="5.79519">
        <ele>288.1</ele>
        <time>2023-05-06T11:34:47Z</time>
      </trkpt>
      <trkpt lat="46.98086" lon="5.79513">
        <ele>288.7</ele>
        <time>2023-05-06T11:35:07Z</time>
      </trkpt>
      <trkpt lat="46.98111" lon="5.7948">
        <ele>290</ele>
        <time>2023-05-06T11:35:13Z</time>
      </trkpt>
      <trkpt lat="46.98124" lon="5.79458">
        <ele>290</ele>
        <time>2023-05-06T11:35:33Z</time>
      </trkpt>
      <trkpt lat="46.98128" lon="5.79444">
        <ele>290</ele>
        <time>2023-05-06T11:35:44Z</time>
      </trkpt>
      <trkpt lat="46.98129" lon="5.79445">
        <ele>290</ele>
        <time>2023-05-06T11:36:04Z</time>
      </trkpt>
      <trkpt lat="46.98187" lon="5.79477">
        <ele>290.7</ele>
        <time>2023-05-06T11:36:17Z</time>
      </trkpt>
      <trkpt lat="46.98223" lon="5.79491">
        <ele>291</ele>
        <time>2023-05-06T11:36:23Z</time>
      </trkpt>
      <trkpt lat="46.98355" lon="5.79513">
        <ele>289.9</ele>
        <time>2023-05-06T11:36:38Z</time>
      </trkpt>
      <trkpt lat="46.98424" lon="5.7952">
        <ele>288.6</ele>
        <time>2023-05-06T11:36:58Z</time>
      </trkpt>
      <trkpt lat="46.98424" lon="5.79552">
        <ele>291.5</ele>
        <time>2023-05-06T11:37:09Z</time>
      </trkpt>
      <trkpt lat="46.98422" lon="5.79561">
        <ele>292.8</ele>
        <time>2023-05-06T11:37:12Z</time>
      </trkpt>
      <trkpt lat="46.9841" lon="5.79578">
        <ele>295.2</ele>
        <time>2023-05-06T11:37:30Z</time>
      </trkpt>
      <trkpt lat="46.98392" lon="5.79595">
        <ele>297.6</ele>
        <time>2023-05-06T11:37:40Z</time>
      </trkpt>
      <trkpt lat="46.98378" lon="5.79605">
        <ele>299.5</ele>
        <time>2023-05-06T11:37:55Z</time>
      </trkpt>
      <trkpt lat="46.98348" lon="5.79638">
        <ele>305.3</ele>
        <time>2023-05-06T11:38:09Z</time>
      </trkpt>
      <trkpt lat="46.98328" lon="5.79663">
        <ele>309.4</ele>
        <time>2023-05-06T11:38:28Z</time>
      </trkpt>
      <trkpt lat="46.98312" lon="5.79687">
        <ele>312.9</ele>
        <time>2023-05-06T11:38:45Z</time>
      </trkpt>
      <trkpt lat="46.98304" lon="5.79699">
        <ele>314.8</ele>
        <time>2023-05-06T11:38:54Z</time>
      </trkpt>
      <trkpt lat="46.98254" lon="5.79793">
        <ele>326.4</ele>
        <time>2023-05-06T11:39:07Z</time>
      </trkpt>
      <trkpt lat="46.98214" lon="5.79838">
        <ele>331.9</ele>
        <time>2023-05-06T11:39:27Z</time>
      </trkpt>
      <trkpt lat="46.98156" lon="5.79877">
        <ele>336.8</ele>
        <time>2023-05-06T11:39:30Z</time>
      </trkpt>
      <trkpt lat="46.98137" lon="5.79904">
        <ele>339.4</ele>
        <time>2023-05-06T11:39:36Z</time>
      </trkpt>
      <trkpt lat="46.98106" lon="5.79973">
        <ele>346.6</ele>
        <time>2023-05-06T11:39:44Z</time>
      </trkpt>
      <trkpt lat="46.98077" lon="5.80009">
        <ele>348.1</ele>
        <time>2023-05-06T11:39:53Z</time>
      </trkpt>
      <trkpt lat="46.98038" lon="5.801">
        <ele>351.4</ele>
        <time>2023-05-06T11:40:12Z</time>
      </trkpt>
      <trkpt lat="46.98028" lon="5.80155">
        <ele>353</ele>
        <time>2023-05-06T11:40:32Z</time>
      </trkpt>
      <trkpt lat="46.98027" lon="5.80162">
        <ele>352.9</ele>
        <time>2023-05-06T11:40:43Z</time>
      </trkpt>
      <trkpt lat="46.97987" lon="5.80205">
        <ele>344.7</ele>
        <time>2023-05-06T11:40:48Z</time>
      </trkpt>
      <trkpt lat="46.97937" lon="5.80267">
        <ele>337.4</ele>
        <time>2023-05-06T11:40:50Z</time>
      </trkpt>
      <trkpt lat="46.97921" lon="5.80294">
        <ele>335</ele>
        <time>2023-05-06T11:40:58Z</time>
      </trkpt>
      <trkpt lat="46.9793" lon="5.80292">
        <ele>336.8</ele>
        <time>2023-05-06T11:41:04Z</time>
      </trkpt>
      <trkpt lat="46.97955" lon="5.80286">
        <ele>341.2</ele>
        <time>2023-05-06T11:41:16Z</time>
      </trkpt>
      <trkpt lat="46.97999" lon="5.80283">
        <ele>346.3</ele>
        <time>2023-05-06T11:41:24Z</time>
      </trkpt>
      <trkpt lat="46.98017" lon="5.80285">
        <ele>348.2</ele>
        <time>2023-05-06T11:41:37Z</time>
      </trkpt>
      <trkpt lat="46.9802" lon="5.80288">
        <ele>348.6</ele>
        <time>2023-05-06T11:41:47Z</time>
      </trkpt>
      <trkpt lat="46.98029" lon="5.80296">
        <ele>349.7</ele>
        <time>2023-05-06T11:41:50Z</time>
      </trkpt>
      <trkpt lat="46.98035" lon="5.80323">
        <ele>350.4</ele>
        <time>2023-05-06T11:42:06Z</time>
      </trkpt>
      <trkpt lat="46.98042" lon="5.8034">
        <ele>350.6</ele>
        <time>2023-05-06T11:42:24Z</time>
      </trkpt>
      <trkpt lat="46.98047" lon="5.80374">
        <ele>352.7</ele>
        <time>2023-05-06T11:42:34Z</time>
      </trkpt>
      <trkpt lat="46.9805" lon="5.80386">
        <ele>353.9</ele>
        <time>2023-05-06T11:42:39Z</time>
      </trkpt>
      <trkpt lat="46.98082" lon="5.80454">
        <ele>356.1</ele>
        <time>2023-05-06T11:42:57Z</time>
      </trkpt>
      <trkpt lat="46.98095" lon="5.80472">
        <ele>356.2</ele>
        <time>2023-05-06T11:43:09Z</time>
      </trkpt>
      <trkpt lat="46.98156" lon="5.80484">
        <ele>363.6</ele>
        <time>2023-05-06T11:43:21Z</time>
      </trkpt>
      <trkpt lat="46.98209" lon="5.80495">
        <ele>369.7</ele>
        <time>2023-05-06T11:43:37Z</time>
      </trkpt>
      <trkpt lat="46.98301" lon="5.80509">
        <ele>377</ele>
        <time>2023-05-06T11:43:56Z</time>
      </trkpt>
      <trkpt lat="46.98461" lon="5.80529">
        <ele>380.4</ele>
        <time>2023-05-06T11:44:06Z</time>
      </trkpt>
      <trkpt lat="46.98502" lon="5.80485">
        <ele>379.2</ele>
        <time>2023-05-06T11:44:17Z</time>
      </trkpt>
      <trkpt lat="46.9851" lon="5.80488">
        <ele>379.9</ele>
        <time>2023-05-06T11:44:32Z</time>
      </trkpt>
      <trkpt lat="46.98549" lon="5.80499">
        <ele>384.3</ele>
        <time>2023-05-06T11:44:40Z</time>
      </trkpt>
      <trkpt lat="46.9873" lon="5.80521">
        <ele>406.6</ele>
        <time>2023-05-06T11:44:46Z</time>
      </trkpt>
      <trkpt lat="46.98799" lon="5.80486">
        <ele>408.6</ele>
        <time>2023-05-06T11:45:02Z</time>
      </trkpt>
      <trkpt lat="46.98822" lon="5.80529">
        <ele>407.5</ele>
        <time>2023-05-06T11:45:20Z</time>
      </trkpt>
      <trkpt lat="46.98857" lon="5.80553">
        <ele>411.7</ele>
        <time>2023-05-06T11:45:31Z</time>
      </trkpt>
      <trkpt lat="46.98881" lon="5.80551">
        <ele>412.6</ele>
        <time>2023-05-06T11:45:48Z</time>
      </trkpt>
      <trkpt lat="46.98927" lon="5.80557">
        <ele>413.1</ele>
        <time>2023-05-06T11:46:08Z</time>
      </trkpt>
      <trkpt lat="46.99174" lon="5.80609">
        <ele>408.1</ele>
        <time>2023-05-06T11:46:24Z</time>
      </trkpt>
      <trkpt lat="46.99208" lon="5.80611">
        <ele>407</ele>
        <time>2023-05-06T11:46:26Z</time>
      </trkpt>
      <trkpt lat="46.99248" lon="5.80568">
        <ele>404.1</ele>
        <time>2023-05-06T11:46:45Z</time>
      </trkpt>
      <trkpt lat="46.99302" lon="5.80537">
        <ele>396.2</ele>
        <time>2023-05-06T11:47:04Z</time>
      </trkpt>
      <trkpt lat="46.99309" lon="5.80538">
        <ele>395.2</ele>
        <time>2023-05-06T11:47:24Z</time>
      </trkpt>
      <trkpt lat="46.99342" lon="5.80547">
        <ele>390</ele>
        <time>2023-05-06T11:47:37Z</time>
      </trkpt>
      <trkpt lat="46.99363" lon="5.80585">
        <ele>388</ele>
        <time>2023-05-06T11:47:54Z</time>
      </trkpt>
      <trkpt lat="46.99377" lon="5.80624">
        <ele>388.5</ele>
        <time>2023-05-06T11:48:03Z</time>
      </trkpt>
      <trkpt lat="46.99387" lon="5.80662">
        <ele>387.3</ele>
        <time>2023-05-06T11:48:06Z</time>
      </trkpt>
      <trkpt lat="46.99393" lon="5.80709">
        <ele>385.8</ele>
        <time>2023-05-06T11:48:13Z</time>
      </trkpt>
      <trkpt lat="46.99429" lon="5.80768">
        <ele>376.2</ele>
        <time>2023-05-06T11:48:20Z</time>
      </trkpt>
      <trkpt lat="46.99494" lon="5.80804">
        <ele>374.4</ele>
        <time>2023-05-06T11:48:22Z</time>
      </trkpt>
      <trkpt lat="46.99547" lon="5.80789">
        <ele>367.8</ele>
        <time>2023-05-06T11:48:34Z</time>
      </trkpt>
      <trkpt lat="46.99599" lon="5.80712">
        <ele>361.4</ele>
        <time>2023-05-06T11:48:45Z</time>
      </trkpt>
      <trkpt lat="46.99652" lon="5.80687">
        <ele>360.5</ele>
        <time>2023-05-06T11:48:57Z</time>
      </trkpt>
      <trkpt lat="46.99774" lon="5.807">
        <ele>362.3</ele>
        <time>2023-05-06T11:48:59Z</time>
      </trkpt>
      <trkpt lat="46.99954" lon="5.80742">
        <ele>355.9</ele>
        <time>2023-05-06T11:49:03Z</time>
      </trkpt>
      <trkpt lat="47.00051" lon="5.80759">
        <ele>351.8</ele>
        <time>2023-05-06T11:49:09Z</time>
      </trkpt>
      <trkpt lat="47.00051" lon="5.80755">
        <ele>351.5</ele>
        <time>2023-05-06T11:49:23Z</time>
      </trkpt>
      <trkpt lat="47.00051" lon="5.80759">
        <ele>351.8</ele>
        <time>2023-05-06T11:49:30Z</time>
      </trkpt>
      <trkpt lat="47.00002" lon="5.8075">
        <ele>352.9</ele>
        <time>2023-05-06T11:49:33Z</time>
      </trkpt>
      <trkpt lat="46.99996" lon="5.80806">
        <ele>359</ele>
        <time>2023-05-06T11:49:39Z</time>
      </trkpt>
      <trkpt lat="46.99975" lon="5.80827">
        <ele>359.8</ele>
        <time>2023-05-06T11:49:51Z</time>
      </trkpt>
      <trkpt lat="46.99937" lon="5.8087">
        <ele>363.3</ele>
        <time>2023-05-06T11:50:05Z</time>
      </trkpt>
      <trkpt lat="46.99903" lon="5.80897">
        <ele>365.7</ele>
        <time>2023-05-06T11:50:08Z</time>
      </trkpt>
      <trkpt lat="46.99878" lon="5.80901">
        <ele>365</ele>
        <time>2023-05-06T11:50:27Z</time>
      </trkpt>
      <trkpt lat="46.99831" lon="5.80878">
        <ele>362.4</ele>
        <time>2023-05-06T11:50:30Z</time>
      </trkpt>
      <trkpt lat="46.99812" lon="5.80877">
        <ele>360.7</ele>
        <time>2023-05-06T11:50:32Z</time>
      </trkpt>
      <trkpt lat="46.99797" lon="5.80882">
        <ele>360.3</ele>
        <time>2023-05-06T11:50:40Z</time>
      </trkpt>
      <trkpt lat="46.9977" lon="5.80897">
        <ele>358</ele>
        <time>2023-05-06T11:50:58Z</time>
      </trkpt>
      <trkpt lat="46.99745" lon="5.80899">
        <ele>355.7</ele>
        <time>2023-05-06T11:51:05Z</time>
      </trkpt>
      <trkpt lat="46.99719" lon="5.80904">
        <ele>354.5</ele>
        <time>2023-05-06T11:51:20Z</time>
      </trkpt>
      <trkpt lat="46.99703" lon="5.80925">
        <ele>353.1</ele>
        <time>2023-05-06T11:51:23Z</time>
      </trkpt>
      <trkpt lat="46.99678" lon="5.80974">
        <ele>347.7</ele>
        <time>2023-05-06T11:51:26Z</time>
      </trkpt>
      <trkpt lat="46.99634" lon="5.81101">
        <ele>351.7</ele>
        <time>2023-05-06T11:51:31Z</time>
      </trkpt>
      <trkpt lat="46.99628" lon="5.81139">
        <ele>351.3</ele>
        <time>2023-05-06T11:51:41Z</time>
      </trkpt>
      <trkpt lat="46.99624" lon="5.81176">
        <ele>352.6</ele>
        <time>2023-05-06T11:51:55Z</time>
      </trkpt>
      <trkpt lat="46.99615" lon="5.81193">
        <ele>353.4</ele>
        <time>2023-05-06T11:52:09Z</time>
      </trkpt>
      <trkpt lat="46.99588" lon="5.81223">
        <ele>355.1</ele>
        <time>2023-05-06T11:52:18Z</time>
      </trkpt>
      <trkpt lat="46.99575" lon="5.81241">
        <ele>352.2</ele>
        <time>2023-05-06T11:52:31Z</time>
      </trkpt>
      <trkpt lat="46.99568" lon="5.8127">
        <ele>350.3</ele>
        <time>2023-05-06T11:52:48Z</time>
      </trkpt>
      <trkpt lat="46.99557" lon="5.81291">
        <ele>351.5</ele>
        <time>2023-05-06T11:53:08Z</time>
      </trkpt>
      <trkpt lat="46.9953" lon="5.81329">
        <ele>352.1</ele>
        <time>2023-05-06T11:53:24Z</time>
      </trkpt>
      <trkpt lat="46.9951" lon="5.81366">
        <ele>350.4</ele>
        <time>2023-05-06T11:53:36Z</time>
      </trkpt>
      <trkpt lat="46.99505" lon="5.81403">
        <ele>349</ele>
        <time>2023-05-06T11:53:41Z</time>
      </trkpt>
      <trkpt lat="46.99512" lon="5.81476">
        <ele>342.1</ele>
        <time>2023-05-06T11:53:59Z</time>
      </trkpt>
      <trkpt lat="46.99512" lon="5.81514">
        <ele>338.6</ele>
        <time>2023-05-06T11:54:06Z</time>
      </trkpt>
      <trkpt lat="46.99507" lon="5.8154">
        <ele>336.1</ele>
        <time>2023-05-06T11:54:09Z</time>
      </trkpt>
      <trkpt lat="46.99506" lon="5.81546">
        <ele>335.7</ele>
        <time>2023-05-06T11:54:13Z</time>
      </trkpt>
      <trkpt lat="46.9948" lon="5.81602">
        <ele>333.9</ele>
        <time>2023-05-06T11:54:27Z</time>
      </trkpt>
      <trkpt lat="46.99501" lon="5.81619">
        <ele>338</ele>
        <time>2023-05-06T11:54:32Z</time>
      </trkpt>
      <trkpt lat="46.99591" lon="5.81689">
        <ele>352.8</ele>
        <time>2023-05-06T11:54:39Z</time>
      </trkpt>
      <trkpt lat="46.99616" lon="5.81699">
        <ele>356.7</ele>
        <time>2023-05-06T11:54:57Z</time>
      </trkpt>
      <trkpt lat="46.9965" lon="5.81688">
        <ele>362.5</ele>
        <time>2023-05-06T11:55:04Z</time>
      </trkpt>
      <trkpt lat="46.99684" lon="5.81699">
        <ele>364.9</ele>
        <time>2023-05-06T11:55:20Z</time>
      </trkpt>
      <trkpt lat="46.99727" lon="5.81733">
        <ele>365.3</ele>
        <time>2023-05-06T11:55:34Z</time>
      </trkpt>
      <trkpt lat="46.9975" lon="5.81733">
        <ele>366.9</ele>
        <time>2023-05-06T11:55:41Z</time>
      </trkpt>
      <trkpt lat="46.9977" lon="5.81737">
        <ele>367.5</ele>
        <time>2023-05-06T11:55:44Z</time>
      </trkpt>
      <trkpt lat="46.998" lon="5.81752">
        <ele>367.7</ele>
        <time>2023-05-06T11:55:59Z</time>
      </trkpt>
      <trkpt lat="46.9986" lon="5.81777">
        <ele>365</ele>
        <time>2023-05-06T11:56:14Z</time>
      </trkpt>
      <trkpt lat="46.99892" lon="5.81771">
        <ele>365</ele>
        <time>2023-05-06T11:56:23Z</time>
      </trkpt>
      <trkpt lat="46.99919" lon="5.81784">
        <ele>364.8</ele>
        <time>2023-05-06T11:56:27Z</time>
      </trkpt>
      <trkpt lat="46.99963" lon="5.81766">
        <ele>365.2</ele>
        <time>2023-05-06T11:56:30Z</time>
      </trkpt>
      <trkpt lat="46.99976" lon="5.81761">
        <ele>365.1</ele>
        <time>2023-05-06T11:56:39Z</time>
      </trkpt>
      <trkpt lat="47.00014" lon="5.81731">
        <ele>364.7</ele>
        <time>2023-05-06T11:56:52Z</time>
      </trkpt>
      <trkpt lat="47.00026" lon="5.81717">
        <ele>364.2</ele>
        <time>2023-05-06T11:57:12Z</time>
      </trkpt>
      <trkpt lat="47.00032" lon="5.81706">
        <ele>363.7</ele>
        <time>2023-05-06T11:57:23Z</time>
      </trkpt>
      <trkpt lat="47.00038" lon="5.817">
        <ele>363.3</ele>
        <time>2023-05-06T11:57:34Z</time>
      </trkpt>
      <trkpt lat="47.00063" lon="5.81689">
        <ele>361.7</ele>
        <time>2023-05-06T11:57:47Z</time>
      </trkpt>
      <trkpt lat="47.00072" lon="5.81689">
        <ele>361</ele>
        <time>2023-05-06T11:57:58Z</time>
      </trkpt>
      <trkpt lat="47.00092" lon="5.81697">
        <ele>358.7</ele>
        <time>2023-05-06T11:58:06Z</time>
      </trkpt>
      <trkpt lat="47.00112" lon="5.81722">
        <ele>355.9</ele>
        <time>2023-05-06T11:58:08Z</time>
      </trkpt>
      <trkpt lat="47.00115" lon="5.81673">
        <ele>356.2</ele>
        <time>2023-05-06T11:58:25Z</time>
      </trkpt>
      <trkpt lat="47.00119" lon="5.81612">
        <ele>355.9</ele>
        <time>2023-05-06T11:58:42Z</time>
      </trkpt>
      <trkpt lat="47.00149" lon="5.81286">
        <ele>348</ele>
        <time>2023-05-06T11:58:57Z</time>
      </trkpt>
      <trkpt lat="47.00155" lon="5.81238">
        <ele>350.8</ele>
        <time>2023-05-06T11:59:15Z</time>
      </trkpt>
      <trkpt lat="47.00161" lon="5.8117">
        <ele>352.4</ele>
        <time>2023-05-06T11:59:26Z</time>
      </trkpt>
      <trkpt lat="47.00178" lon="5.811">
        <ele>350.8</ele>
        <time>2023-05-06T11:59:36Z</time>
      </trkpt>
      <trkpt lat="47.00204" lon="5.81059">
        <ele>350.4</ele>
        <time>2023-05-06T11:59:40Z</time>
      </trkpt>
      <trkpt lat="47.00244" lon="5.80988">
        <ele>351.2</ele>
        <time>2023-05-06T11:59:44Z</time>
      </trkpt>
      <trkpt lat="47.00252" lon="5.80901">
        <ele>353.3</ele>
        <time>2023-05-06T11:59:47Z</time>
      </trkpt>
      <trkpt lat="47.00249" lon="5.80869">
        <ele>353.7</ele>
        <time>2023-05-06T12:00:00Z</time>
      </trkpt>
      <trkpt lat="47.00268" lon="5.80825">
        <ele>356.5</ele>
        <time>2023-05-06T12:00:19Z</time>
      </trkpt>
      <trkpt lat="47.00271" lon="5.80819">
        <ele>356.6</ele>
        <time>2023-05-06T12:00:30Z</time>
      </trkpt>
      <trkpt lat="47.00272" lon="5.80795">
        <ele>357.4</ele>
        <time>2023-05-06T12:00:33Z</time>
      </trkpt>
      <trkpt lat="47.00259" lon="5.80788">
        <ele>357.6</ele>
        <time>2023-05-06T12:00:37Z</time>
      </trkpt>
      <trkpt lat="47.00234" lon="5.80755">
        <ele>358.3</ele>
        <time>2023-05-06T12:00:40Z</time>
      </trkpt>
      <trkpt lat="47.00226" lon="5.80728">
        <ele>358.9</ele>
        <time>2023-05-06T12:00:49Z</time>
      </trkpt>
      <trkpt lat="47.00215" lon="5.80701">
        <ele>359.3</ele>
        <time>2023-05-06T12:01:01Z</time>
      </trkpt>
      <trkpt lat="47.00213" lon="5.80681">
        <ele>359.5</ele>
        <time>2023-05-06T12:01:12Z</time>
      </trkpt>
      <trkpt lat="47.00201" lon="5.80651">
        <ele>358.6</ele>
        <time>2023-05-06T12:01:30Z</time>
      </trkpt>
      <trkpt lat="47.00156" lon="5.80619">
        <ele>356.1</ele>
        <time>2023-05-06T12:01:45Z</time>
      </trkpt>
      <trkpt lat="47.0014" lon="5.80598">
        <ele>355.5</ele>
        <time>2023-05-06T12:02:00Z</time>
      </trkpt>
      <trkpt lat="47.00107" lon="5.8056">
        <ele>354.1</ele>
        <time>2023-05-06T12:02:17Z</time>
      </trkpt>
      <trkpt lat="47.00101" lon="5.8055">
        <ele>353.9</ele>
        <time>2023-05-06T12:02:32Z</time>
      </trkpt>
      <trkpt lat="47.00082" lon="5.8053">
        <ele>354</ele>
        <time>2023-05-06T12:02:41Z</time>
      </trkpt>
      <trkpt lat="47.00072" lon="5.80524">
        <ele>353.6</ele>
        <time>2023-05-06T12:02:52Z</time>
      </trkpt>
      <trkpt lat="47.00054" lon="5.80505">
        <ele>352.4</ele>
        <time>2023-05-06T12:03:00Z</time>
      </trkpt>
      <trkpt lat="47.00047" lon="5.80478">
        <ele>350.7</ele>
        <time>2023-05-06T12:03:11Z</time>
      </trkpt>
      <trkpt lat="47.00046" lon="5.80452">
        <ele>348.2</ele>
        <time>2023-05-06T12:03:20Z</time>
      </trkpt>
      <trkpt lat="47.00051" lon="5.80453">
        <ele>348.1</ele>
        <time>2023-05-06T12:03:23Z</time>
      </trkpt>
      <trkpt lat="47.00046" lon="5.80452">
        <ele>348.2</ele>
        <time>2023-05-06T12:03:27Z</time>
      </trkpt>
      <trkpt lat="47.0001" lon="5.80438">
        <ele>348.6</ele>
        <time>2023-05-06T12:03:47Z</time>
      </trkpt>
      <trkpt lat="46.99971" lon="5.80407">
        <ele>347</ele>
        <time>2023-05-06T12:03:57Z</time>
      </trkpt>
      <trkpt lat="46.99859" lon="5.8037">
        <ele>350.5</ele>
        <time>2023-05-06T12:04:08Z</time>
      </trkpt>
      <trkpt lat="46.99733" lon="5.80293">
        <ele>347.2</ele>
        <time>2023-05-06T12:04:19Z</time>
      </trkpt>
      <trkpt lat="46.99618" lon="5.80245">
        <ele>343.6</ele>
        <time>2023-05-06T12:04:39Z</time>
      </trkpt>
      <trkpt lat="46.99559" lon="5.80255">
        <ele>344.4</ele>
        <time>2023-05-06T12:04:46Z</time>
      </trkpt>
      <trkpt lat="46.99473" lon="5.80239">
        <ele>343.2</ele>
        <time>2023-05-06T12:04:58Z</time>
      </trkpt>
      <trkpt lat="46.99464" lon="5.80237">
        <ele>343.5</ele>
        <time>2023-05-06T12:05:05Z</time>
      </trkpt>
      <trkpt lat="46.99426" lon="5.80159">
        <ele>335.2</ele>
        <time>2023-05-06T12:05:17Z</time>
      </trkpt>
      <trkpt lat="46.9935" lon="5.8008">
        <ele>326.9</ele>
        <time>2023-05-06T12:05:25Z</time>
      </trkpt>
      <trkpt lat="46.99334" lon="5.80014">
        <ele>317.5</ele>
        <time>2023-05-06T12:05:43Z</time>
      </trkpt>
      <trkpt lat="46.99308" lon="5.79984">
        <ele>314.6</ele>
        <time>2023-05-06T12:05:48Z</time>
      </trkpt>
      <trkpt lat="46.99302" lon="5.79936">
        <ele>307.6</ele>
        <time>2023-05-06T12:06:08Z</time>
      </trkpt>
      <trkpt lat="46.99279" lon="5.79848">
        <ele>295.1</ele>
        <time>2023-05-06T12:06:20Z</time>
      </trkpt>
      <trkpt lat="46.99284" lon="5.79673">
        <ele>280.2</ele>
        <time>2023-05-06T12:06:37Z</time>
      </trkpt>
      <trkpt lat="46.99285" lon="5.79618">
        <ele>276.5</ele>
        <time>2023-05-06T12:06:56Z</time>
      </trkpt>
      <trkpt lat="46.99272" lon="5.79476">
        <ele>269.8</ele>
        <time>2023-05-06T12:07:04Z</time>
      </trkpt>
      <trkpt lat="46.99265" lon="5.79441">
        <ele>269.5</ele>
        <time>2023-05-06T12:07:20Z</time>
      </trkpt>
      <trkpt lat="46.99263" lon="5.79375">
        <ele>268.5</ele>
        <time>2023-05-06T12:07:33Z</time>
      </trkpt>
      <trkpt lat="46.99253" lon="5.79316">
        <ele>267.4</ele>
        <time>2023-05-06T12:07:44Z</time>
      </trkpt>
      <trkpt lat="46.99252" lon="5.79296">
        <ele>267</ele>
        <time>2023-05-06T12:07:52Z</time>
      </trkpt>
      <trkpt lat="46.99254" lon="5.79285">
        <ele>267</ele>
        <time>2023-05-06T12:08:07Z</time>
      </trkpt>
      <trkpt lat="46.99254" lon="5.79281">
        <ele>267</ele>
        <time>2023-05-06T12:08:18Z</time>
      </trkpt>
      <trkpt lat="46.99528" lon="5.79137">
        <ele>263.9</ele>
        <time>2023-05-06T12:08:21Z</time>
      </trkpt>
      <trkpt lat="46.99585" lon="5.79121">
        <ele>262.7</ele>
        <time>2023-05-06T12:08:39Z</time>
      </trkpt>
      <trkpt lat="46.996" lon="5.79114">
        <ele>262.1</ele>
        <time>2023-05-06T12:08:53Z</time>
      </trkpt>
      <trkpt lat="46.99612" lon="5.79104">
        <ele>262.8</ele>
        <time>2023-05-06T12:09:01Z</time>
      </trkpt>
      <trkpt lat="46.99623" lon="5.79091">
        <ele>263.6</ele>
        <time>2023-05-06T12:09:12Z</time>
      </trkpt>
      <trkpt lat="46.99645" lon="5.79096">
        <ele>262.8</ele>
        <time>2023-05-06T12:09:21Z</time>
      </trkpt>
      <trkpt lat="46.99663" lon="5.79096">
        <ele>263.9</ele>
        <time>2023-05-06T12:09:23Z</time>
      </trkpt>
      <trkpt lat="46.99671" lon="5.791">
        <ele>263.6</ele>
        <time>2023-05-06T12:09:31Z</time>
      </trkpt>
      <trkpt lat="46.99691" lon="5.79155">
        <ele>263.7</ele>
        <time>2023-05-06T12:09:51Z</time>
      </trkpt>
      <trkpt lat="46.99733" lon="5.79312">
        <ele>265.3</ele>
        <time>2023-05-06T12:09:55Z</time>
      </trkpt>
      <trkpt lat="46.99773" lon="5.79439">
        <ele>265.8</ele>
        <time>2023-05-06T12:10:10Z</time>
      </trkpt>
      <trkpt lat="46.99795" lon="5.79531">
        <ele>265.3</ele>
        <time>2023-05-06T12:10:15Z</time>
      </trkpt>
      <trkpt lat="46.99857" lon="5.79569">
        <ele>265.6</ele>
        <time>2023-05-06T12:10:23Z</time>
      </trkpt>
      <trkpt lat="46.99933" lon="5.79622">
        <ele>265.8</ele>
        <time>2023-05-06T12:10:32Z</time>
      </trkpt>
      <trkpt lat="47.00007" lon="5.79665">
        <ele>267.3</ele>
        <time>2023-05-06T12:10:44Z</time>
      </trkpt>
      <trkpt lat="47.00047" lon="5.79693">
        <ele>265.9</ele>
        <time>2023-05-06T12:10:46Z</time>
      </trkpt>
      <trkpt lat="47.00166" lon="5.7978">
        <ele>270.9</ele>
      </trkpt>
      <trkpt lat="47.00596" lon="5.79903">
        <ele>266.2</ele>
        <time>2023-05-06T12:11:05Z</time>
      </trkpt>
      <trkpt lat="47.00617" lon="5.79895">
        <ele>267.2</ele>
      </trkpt>
      <trkpt lat="47.00633" lon="5.79851">
        <ele>266.7</ele>
        <time>2023-05-06T12:11:20Z</time>
      </trkpt>
      <trkpt lat="47.00706" lon="5.79739">
        <ele>264.2</ele>
        <time>2023-05-06T12:11:31Z</time>
      </trkpt>
      <trkpt lat="47.0078" lon="5.79691">
        <ele>261.6</ele>
        <time>2023-05-06T12:11:50Z</time>
      </trkpt>
      <trkpt lat="47.00867" lon="5.79694">
        <ele>258.1</ele>
        <time>2023-05-06T12:11:53Z</time>
      </trkpt>
      <trkpt lat="47.00909" lon="5.79736">
        <ele>257.2</ele>
        <time>2023-05-06T12:11:56Z</time>
      </trkpt>
      <trkpt lat="47.00923" lon="5.79722">
        <ele>255.7</ele>
        <time>2023-05-06T12:12:05Z</time>
      </trkpt>
      <trkpt lat="47.00949" lon="5.79714">
        <ele>253.8</ele>
        <time>2023-05-06T12:12:24Z</time>
      </trkpt>
      <trkpt lat="47.00976" lon="5.79693">
        <ele>251.8</ele>
        <time>2023-05-06T12:12:37Z</time>
      </trkpt>
      <trkpt lat="47.01" lon="5.79664">
        <ele>251</ele>
        <time>2023-05-06T12:12:52Z</time>
      </trkpt>
      <trkpt lat="47.01018" lon="5.79627">
        <ele>249.5</ele>
        <time>2023-05-06T12:13:12Z</time>
      </trkpt>
      <trkpt lat="47.01039" lon="5.79564">
        <ele>248.6</ele>
        <time>2023-05-06T12:13:16Z</time>
      </trkpt>
      <trkpt lat="47.01042" lon="5.79509">
        <ele>246.8</ele>
        <time>2023-05-06T12:13:24Z</time>
      </trkpt>
      <trkpt lat="47.01039" lon="5.79462">
        <ele>245</ele>
        <time>2023-05-06T12:13:40Z</time>
      </trkpt>
      <trkpt lat="47.01028" lon="5.794">
        <ele>244</ele>
        <time>2023-05-06T12:13:43Z</time>
      </trkpt>
      <trkpt lat="47.01027" lon="5.79353">
        <ele>244.1</ele>
        <time>2023-05-06T12:13:55Z</time>
      </trkpt>
      <trkpt lat="47.01045" lon="5.79235">
        <ele>242.6</ele>
        <time>2023-05-06T12:14:10Z</time>
      </trkpt>
      <trkpt lat="47.01055" lon="5.79156">
        <ele>241.6</ele>
        <time>2023-05-06T12:14:24Z</time>
      </trkpt>
      <trkpt lat="47.01054" lon="5.79122">
        <ele>241</ele>
        <time>2023-05-06T12:14:28Z</time>
      </trkpt>
      <trkpt lat="47.01049" lon="5.79084">
        <ele>240.8</ele>
        <time>2023-05-06T12:14:34Z</time>
      </trkpt>
      <trkpt lat="47.01051" lon="5.79084">
        <ele>240.5</ele>
        <time>2023-05-06T12:14:39Z</time>
      </trkpt>
      <trkpt lat="47.01122" lon="5.79065">
        <ele>237.9</ele>
        <time>2023-05-06T12:14:47Z</time>
      </trkpt>
      <trkpt lat="47.01198" lon="5.7903">
        <ele>235.8</ele>
        <time>2023-05-06T12:14:55Z</time>
      </trkpt>
      <trkpt lat="47.01314" lon="5.78968">
        <ele>236.3</ele>
        <time>2023-05-06T12:15:12Z</time>
      </trkpt>
      <trkpt lat="47.01379" lon="5.78928">
        <ele>236</ele>
        <time>2023-05-06T12:15:19Z</time>
      </trkpt>
      <trkpt lat="47.01388" lon="5.78919">
        <ele>235.1</ele>
        <time>2023-05-06T12:15:30Z</time>
      </trkpt>
      <trkpt lat="47.01403" lon="5.78909">
        <ele>235.7</ele>
        <time>2023-05-06T12:15:34Z</time>
      </trkpt>
      <trkpt lat="47.01404" lon="5.7891">
        <ele>235.3</ele>
        <time>2023-05-06T12:15:45Z</time>
      </trkpt>
      <trkpt lat="47.01395" lon="5.78879">
        <ele>241.2</ele>
        <time>2023-05-06T12:16:01Z</time>
      </trkpt>
      <trkpt lat="47.01386" lon="5.78856">
        <ele>237.8</ele>
        <time>2023-05-06T12:16:07Z</time>
      </trkpt>
      <trkpt lat="47.01367" lon="5.78826">
        <ele>234.9</ele>
        <time>2023-05-06T12:16:12Z</time>
      </trkpt>
      <trkpt lat="47.01197" lon="5.78508">
        <ele>235</ele>
        <time>2023-05-06T12:16:22Z</time>
      </trkpt>
      <trkpt lat="47.01083" lon="5.78268">
        <ele>234</ele>
        <time>2023-05-06T12:16:27Z</time>
      </trkpt>
      <trkpt lat="47.01083" lon="5.78263">
        <ele>234</ele>
        <time>2023-05-06T12:16:36Z</time>
      </trkpt>
      <trkpt lat="47.01083" lon="5.78268">
        <ele>234</ele>
        <time>2023-05-06T12:16:44Z</time>
      </trkpt>
      <trkpt lat="47.01185" lon="5.78145">
        <ele>234</ele>
        <time>2023-05-06T12:16:59Z</time>
      </trkpt>
      <trkpt lat="47.01177" lon="5.78131">
        <ele>234</ele>
        <time>2023-05-06T12:17:02Z</time>
      </trkpt>
      <trkpt lat="47.01158" lon="5.78096">
        <ele>234</ele>
        <time>2023-05-06T12:17:12Z</time>
      </trkpt>
      <trkpt lat="47.0115" lon="5.78056">
        <ele>234</ele>
        <time>2023-05-06T12:17:27Z</time>
      </trkpt>
      <trkpt lat="47.01117" lon="5.77784">
        <ele>234</ele>
        <time>2023-05-06T12:17:37Z</time>
      </trkpt>
      <trkpt lat="47.01115" lon="5.77777">
        <ele>234</ele>
        <time>2023-05-06T12:17:57Z</time>
      </trkpt>
      <trkpt lat="47.01177" lon="5.77686">
        <ele>234</ele>
        <time>2023-05-06T12:18:10Z</time>
      </trkpt>
      <trkpt lat="47.01176" lon="5.77685">
        <ele>234</ele>
        <time>2023-05-06T12:18:23Z</time>
      </trkpt>
      <trkpt lat="47.01132" lon="5.77622">
        <ele>234</ele>
        <time>2023-05-06T12:18:42Z</time>
      </trkpt>
      <trkpt lat="47.01134" lon="5.77619">
        <ele>234</ele>
        <time>2023-05-06T12:18:59Z</time>
      </trkpt>
      <trkpt lat="47.01148" lon="5.77599">
        <ele>234</ele>
        <time>2023-05-06T12:19:18Z</time>
      </trkpt>
      <trkpt lat="47.01158" lon="5.77568">
        <ele>234</ele>
        <time>2023-05-06T12:19:23Z</time>
      </trkpt>
      <trkpt lat="47.01158" lon="5.77558">
        <ele>234</ele>
        <time>2023-05-06T12:19:40Z</time>
      </trkpt>
      <trkpt lat="47.01159" lon="5.77538">
        <ele>234</ele>
        <time>2023-05-06T12:19:44Z</time>
      </trkpt>
    </trkseg>
  </trk>
</gpx>